<?xml version="1.0" encoding="UTF-8" standalone="no" ?>
<gpx xmlns="http://www.topografix.com/GPX/1/1" xmlns:xsi="http://www.w3.org/2001/XMLSchema-instance" xsi:schemaLocation="http://www.topografix.com/GPX/1/1 http://www.topografix.com/GPX/1/1/gpx.xsd" version="1.1" creator="VisuGPX - https://www.visugpx.com">
  <metadata>
    <name>MN 92 Viroflay Soutenue A2</name>
    <desc><![CDATA[Marche Nordique dans le bois de Viroflay, à allure bien soutenue, avec Annick.]]></desc>
  </metadata>
  <trk>
    <name><![CDATA[RIF Meudon Annick ]]></name>
    <cmt><![CDATA[Viroflay ]]></cmt>
    <desc><![CDATA[comment ...]]></desc>
    <trkseg>
      <trkpt lat="48.79327" lon="2.18564">
        <ele>133</ele>
        <time>2014-09-28T09:22:59Z</time>
      </trkpt>
      <trkpt lat="48.79327" lon="2.18564">
        <ele>133</ele>
        <time>2014-09-28T09:23:00Z</time>
      </trkpt>
      <trkpt lat="48.79327" lon="2.18556">
        <ele>132</ele>
        <time>2014-09-28T09:23:27Z</time>
      </trkpt>
      <trkpt lat="48.79332" lon="2.18547">
        <ele>134</ele>
        <time>2014-09-28T09:23:30Z</time>
      </trkpt>
      <trkpt lat="48.79337" lon="2.18531">
        <ele>134</ele>
        <time>2014-09-28T09:23:36Z</time>
      </trkpt>
      <trkpt lat="48.79343" lon="2.18509">
        <ele>141</ele>
        <time>2014-09-28T09:24:07Z</time>
      </trkpt>
      <trkpt lat="48.79346" lon="2.18491">
        <ele>142</ele>
        <time>2014-09-28T09:24:16Z</time>
      </trkpt>
      <trkpt lat="48.79359" lon="2.18459">
        <ele>144</ele>
        <time>2014-09-28T09:24:29Z</time>
      </trkpt>
      <trkpt lat="48.79359" lon="2.18451">
        <ele>144</ele>
        <time>2014-09-28T09:24:31Z</time>
      </trkpt>
      <trkpt lat="48.79356" lon="2.18441">
        <ele>144</ele>
        <time>2014-09-28T09:24:34Z</time>
      </trkpt>
      <trkpt lat="48.79357" lon="2.18431">
        <ele>147</ele>
        <time>2014-09-28T09:24:37Z</time>
      </trkpt>
      <trkpt lat="48.79384" lon="2.18352">
        <ele>145</ele>
        <time>2014-09-28T09:25:09Z</time>
      </trkpt>
      <trkpt lat="48.79382" lon="2.18343">
        <ele>143</ele>
        <time>2014-09-28T09:25:12Z</time>
      </trkpt>
      <trkpt lat="48.7938" lon="2.18334">
        <ele>138</ele>
        <time>2014-09-28T09:25:15Z</time>
      </trkpt>
      <trkpt lat="48.79383" lon="2.18323">
        <ele>139</ele>
        <time>2014-09-28T09:25:19Z</time>
      </trkpt>
      <trkpt lat="48.79387" lon="2.18315">
        <ele>140</ele>
        <time>2014-09-28T09:25:23Z</time>
      </trkpt>
      <trkpt lat="48.79406" lon="2.18277">
        <ele>134</ele>
        <time>2014-09-28T09:25:43Z</time>
      </trkpt>
      <trkpt lat="48.79417" lon="2.18271">
        <ele>138</ele>
        <time>2014-09-28T09:25:48Z</time>
      </trkpt>
      <trkpt lat="48.79426" lon="2.18255">
        <ele>135</ele>
        <time>2014-09-28T09:25:57Z</time>
      </trkpt>
      <trkpt lat="48.79427" lon="2.18247">
        <ele>131</ele>
        <time>2014-09-28T09:26:07Z</time>
      </trkpt>
      <trkpt lat="48.79451" lon="2.18236">
        <ele>128</ele>
        <time>2014-09-28T09:26:27Z</time>
      </trkpt>
      <trkpt lat="48.79459" lon="2.18238">
        <ele>128</ele>
        <time>2014-09-28T09:26:31Z</time>
      </trkpt>
      <trkpt lat="48.79473" lon="2.1824">
        <ele>131</ele>
        <time>2014-09-28T09:26:39Z</time>
      </trkpt>
      <trkpt lat="48.79527" lon="2.18217">
        <ele>114</ele>
        <time>2014-09-28T09:27:21Z</time>
      </trkpt>
      <trkpt lat="48.79542" lon="2.18214">
        <ele>114</ele>
        <time>2014-09-28T09:27:29Z</time>
      </trkpt>
      <trkpt lat="48.79553" lon="2.1819">
        <ele>109</ele>
        <time>2014-09-28T09:27:38Z</time>
      </trkpt>
      <trkpt lat="48.79555" lon="2.18178">
        <ele>107</ele>
        <time>2014-09-28T09:27:42Z</time>
      </trkpt>
      <trkpt lat="48.79563" lon="2.18163">
        <ele>107</ele>
        <time>2014-09-28T09:27:50Z</time>
      </trkpt>
      <trkpt lat="48.79568" lon="2.18151">
        <ele>109</ele>
        <time>2014-09-28T09:27:56Z</time>
      </trkpt>
      <trkpt lat="48.79576" lon="2.18132">
        <ele>113</ele>
        <time>2014-09-28T09:28:06Z</time>
      </trkpt>
      <trkpt lat="48.79589" lon="2.18113">
        <ele>116</ele>
        <time>2014-09-28T09:28:19Z</time>
      </trkpt>
      <trkpt lat="48.79594" lon="2.18108">
        <ele>118</ele>
        <time>2014-09-28T09:28:23Z</time>
      </trkpt>
      <trkpt lat="48.79596" lon="2.18096">
        <ele>119</ele>
        <time>2014-09-28T09:28:30Z</time>
      </trkpt>
      <trkpt lat="48.79605" lon="2.18095">
        <ele>117</ele>
        <time>2014-09-28T09:28:42Z</time>
      </trkpt>
      <trkpt lat="48.7961" lon="2.18084">
        <ele>117</ele>
        <time>2014-09-28T09:28:48Z</time>
      </trkpt>
      <trkpt lat="48.7962" lon="2.18066">
        <ele>121</ele>
        <time>2014-09-28T09:28:59Z</time>
      </trkpt>
      <trkpt lat="48.79628" lon="2.18015">
        <ele>128</ele>
        <time>2014-09-28T09:29:28Z</time>
      </trkpt>
      <trkpt lat="48.79634" lon="2.18">
        <ele>130</ele>
        <time>2014-09-28T09:29:36Z</time>
      </trkpt>
      <trkpt lat="48.79629" lon="2.17985">
        <ele>128</ele>
        <time>2014-09-28T09:29:42Z</time>
      </trkpt>
      <trkpt lat="48.79627" lon="2.17958">
        <ele>126</ele>
        <time>2014-09-28T09:29:57Z</time>
      </trkpt>
      <trkpt lat="48.79637" lon="2.17924">
        <ele>126</ele>
        <time>2014-09-28T09:30:15Z</time>
      </trkpt>
      <trkpt lat="48.79635" lon="2.17916">
        <ele>130</ele>
        <time>2014-09-28T09:30:19Z</time>
      </trkpt>
      <trkpt lat="48.79637" lon="2.17899">
        <ele>134</ele>
        <time>2014-09-28T09:30:31Z</time>
      </trkpt>
      <trkpt lat="48.79639" lon="2.17872">
        <ele>135</ele>
        <time>2014-09-28T09:30:45Z</time>
      </trkpt>
      <trkpt lat="48.79637" lon="2.17857">
        <ele>137</ele>
        <time>2014-09-28T09:30:51Z</time>
      </trkpt>
      <trkpt lat="48.79634" lon="2.1785">
        <ele>139</ele>
        <time>2014-09-28T09:30:54Z</time>
      </trkpt>
      <trkpt lat="48.7963" lon="2.17824">
        <ele>138</ele>
        <time>2014-09-28T09:31:07Z</time>
      </trkpt>
      <trkpt lat="48.79633" lon="2.1781">
        <ele>140</ele>
        <time>2014-09-28T09:31:13Z</time>
      </trkpt>
      <trkpt lat="48.7963" lon="2.17787">
        <ele>141</ele>
        <time>2014-09-28T09:31:23Z</time>
      </trkpt>
      <trkpt lat="48.79626" lon="2.17782">
        <ele>140</ele>
        <time>2014-09-28T09:31:26Z</time>
      </trkpt>
      <trkpt lat="48.79626" lon="2.17774">
        <ele>141</ele>
        <time>2014-09-28T09:31:30Z</time>
      </trkpt>
      <trkpt lat="48.79632" lon="2.17761">
        <ele>142</ele>
        <time>2014-09-28T09:31:40Z</time>
      </trkpt>
      <trkpt lat="48.79633" lon="2.17736">
        <ele>142</ele>
        <time>2014-09-28T09:31:52Z</time>
      </trkpt>
      <trkpt lat="48.79629" lon="2.17729">
        <ele>139</ele>
        <time>2014-09-28T09:31:55Z</time>
      </trkpt>
      <trkpt lat="48.79612" lon="2.17715">
        <ele>137</ele>
        <time>2014-09-28T09:32:04Z</time>
      </trkpt>
      <trkpt lat="48.79596" lon="2.17687">
        <ele>137</ele>
        <time>2014-09-28T09:32:18Z</time>
      </trkpt>
      <trkpt lat="48.79573" lon="2.17678">
        <ele>138</ele>
        <time>2014-09-28T09:32:36Z</time>
      </trkpt>
      <trkpt lat="48.79568" lon="2.17678">
        <ele>139</ele>
        <time>2014-09-28T09:32:39Z</time>
      </trkpt>
      <trkpt lat="48.79556" lon="2.17684">
        <ele>139</ele>
        <time>2014-09-28T09:32:47Z</time>
      </trkpt>
      <trkpt lat="48.79536" lon="2.17711">
        <ele>145</ele>
        <time>2014-09-28T09:33:09Z</time>
      </trkpt>
      <trkpt lat="48.79525" lon="2.17719">
        <ele>150</ele>
        <time>2014-09-28T09:33:17Z</time>
      </trkpt>
      <trkpt lat="48.79517" lon="2.17727">
        <ele>151</ele>
        <time>2014-09-28T09:33:25Z</time>
      </trkpt>
      <trkpt lat="48.79476" lon="2.1771">
        <ele>138</ele>
        <time>2014-09-28T09:33:55Z</time>
      </trkpt>
      <trkpt lat="48.79469" lon="2.17703">
        <ele>136</ele>
        <time>2014-09-28T09:33:58Z</time>
      </trkpt>
      <trkpt lat="48.79455" lon="2.17686">
        <ele>141</ele>
        <time>2014-09-28T09:34:17Z</time>
      </trkpt>
      <trkpt lat="48.79451" lon="2.17681">
        <ele>145</ele>
        <time>2014-09-28T09:34:23Z</time>
      </trkpt>
      <trkpt lat="48.79445" lon="2.17679">
        <ele>148</ele>
        <time>2014-09-28T09:34:28Z</time>
      </trkpt>
      <trkpt lat="48.79441" lon="2.17674">
        <ele>149</ele>
        <time>2014-09-28T09:34:32Z</time>
      </trkpt>
      <trkpt lat="48.79434" lon="2.17661">
        <ele>157</ele>
        <time>2014-09-28T09:34:45Z</time>
      </trkpt>
      <trkpt lat="48.79429" lon="2.17656">
        <ele>160</ele>
        <time>2014-09-28T09:34:49Z</time>
      </trkpt>
      <trkpt lat="48.79417" lon="2.17639">
        <ele>159</ele>
        <time>2014-09-28T09:35:01Z</time>
      </trkpt>
      <trkpt lat="48.79414" lon="2.17632">
        <ele>162</ele>
        <time>2014-09-28T09:35:05Z</time>
      </trkpt>
      <trkpt lat="48.79411" lon="2.17625">
        <ele>164</ele>
        <time>2014-09-28T09:35:10Z</time>
      </trkpt>
      <trkpt lat="48.79411" lon="2.17617">
        <ele>166</ele>
        <time>2014-09-28T09:35:15Z</time>
      </trkpt>
      <trkpt lat="48.79399" lon="2.17577">
        <ele>168</ele>
        <time>2014-09-28T09:35:45Z</time>
      </trkpt>
      <trkpt lat="48.79402" lon="2.17559">
        <ele>169</ele>
        <time>2014-09-28T09:35:58Z</time>
      </trkpt>
      <trkpt lat="48.79404" lon="2.17549">
        <ele>172</ele>
        <time>2014-09-28T09:36:02Z</time>
      </trkpt>
      <trkpt lat="48.79413" lon="2.17514">
        <ele>172</ele>
        <time>2014-09-28T09:36:14Z</time>
      </trkpt>
      <trkpt lat="48.79415" lon="2.17503">
        <ele>172</ele>
        <time>2014-09-28T09:36:18Z</time>
      </trkpt>
      <trkpt lat="48.7942" lon="2.17494">
        <ele>174</ele>
        <time>2014-09-28T09:36:22Z</time>
      </trkpt>
      <trkpt lat="48.7942" lon="2.17469">
        <ele>174</ele>
        <time>2014-09-28T09:36:32Z</time>
      </trkpt>
      <trkpt lat="48.7943" lon="2.17389">
        <ele>168</ele>
        <time>2014-09-28T09:37:03Z</time>
      </trkpt>
      <trkpt lat="48.79434" lon="2.17376">
        <ele>169</ele>
        <time>2014-09-28T09:37:08Z</time>
      </trkpt>
      <trkpt lat="48.7944" lon="2.17364">
        <ele>176</ele>
        <time>2014-09-28T09:37:14Z</time>
      </trkpt>
      <trkpt lat="48.79451" lon="2.17276">
        <ele>173</ele>
        <time>2014-09-28T09:37:44Z</time>
      </trkpt>
      <trkpt lat="48.79453" lon="2.17189">
        <ele>164</ele>
        <time>2014-09-28T09:38:15Z</time>
      </trkpt>
      <trkpt lat="48.79453" lon="2.17181">
        <ele>163</ele>
        <time>2014-09-28T09:38:18Z</time>
      </trkpt>
      <trkpt lat="48.79454" lon="2.17173">
        <ele>162</ele>
        <time>2014-09-28T09:38:21Z</time>
      </trkpt>
      <trkpt lat="48.79456" lon="2.17166">
        <ele>165</ele>
        <time>2014-09-28T09:38:24Z</time>
      </trkpt>
      <trkpt lat="48.79463" lon="2.17135">
        <ele>166</ele>
        <time>2014-09-28T09:38:37Z</time>
      </trkpt>
      <trkpt lat="48.79469" lon="2.171">
        <ele>163</ele>
        <time>2014-09-28T09:38:50Z</time>
      </trkpt>
      <trkpt lat="48.79468" lon="2.17095">
        <ele>167</ele>
        <time>2014-09-28T09:38:56Z</time>
      </trkpt>
      <trkpt lat="48.79481" lon="2.1706">
        <ele>171</ele>
        <time>2014-09-28T09:39:07Z</time>
      </trkpt>
      <trkpt lat="48.79479" lon="2.17051">
        <ele>169</ele>
        <time>2014-09-28T09:39:09Z</time>
      </trkpt>
      <trkpt lat="48.79481" lon="2.17044">
        <ele>168</ele>
        <time>2014-09-28T09:39:11Z</time>
      </trkpt>
      <trkpt lat="48.79478" lon="2.17037">
        <ele>166</ele>
        <time>2014-09-28T09:39:13Z</time>
      </trkpt>
      <trkpt lat="48.79472" lon="2.17035">
        <ele>164</ele>
        <time>2014-09-28T09:39:15Z</time>
      </trkpt>
      <trkpt lat="48.79456" lon="2.17034">
        <ele>167</ele>
        <time>2014-09-28T09:39:21Z</time>
      </trkpt>
      <trkpt lat="48.79451" lon="2.17037">
        <ele>168</ele>
        <time>2014-09-28T09:39:23Z</time>
      </trkpt>
      <trkpt lat="48.79445" lon="2.1704">
        <ele>170</ele>
        <time>2014-09-28T09:39:26Z</time>
      </trkpt>
      <trkpt lat="48.79439" lon="2.17041">
        <ele>173</ele>
        <time>2014-09-28T09:39:29Z</time>
      </trkpt>
      <trkpt lat="48.79432" lon="2.17041">
        <ele>179</ele>
        <time>2014-09-28T09:39:32Z</time>
      </trkpt>
      <trkpt lat="48.79425" lon="2.17042">
        <ele>183</ele>
        <time>2014-09-28T09:39:35Z</time>
      </trkpt>
      <trkpt lat="48.79393" lon="2.17071">
        <ele>187</ele>
        <time>2014-09-28T09:39:56Z</time>
      </trkpt>
      <trkpt lat="48.79367" lon="2.17102">
        <ele>189</ele>
        <time>2014-09-28T09:40:16Z</time>
      </trkpt>
      <trkpt lat="48.79361" lon="2.17106">
        <ele>191</ele>
        <time>2014-09-28T09:40:21Z</time>
      </trkpt>
      <trkpt lat="48.7935" lon="2.1712">
        <ele>191</ele>
        <time>2014-09-28T09:40:28Z</time>
      </trkpt>
      <trkpt lat="48.79331" lon="2.1714">
        <ele>191</ele>
        <time>2014-09-28T09:40:46Z</time>
      </trkpt>
      <trkpt lat="48.79329" lon="2.17149">
        <ele>185</ele>
        <time>2014-09-28T09:40:50Z</time>
      </trkpt>
      <trkpt lat="48.79323" lon="2.17153">
        <ele>187</ele>
        <time>2014-09-28T09:40:53Z</time>
      </trkpt>
      <trkpt lat="48.79282" lon="2.17191">
        <ele>186</ele>
        <time>2014-09-28T09:41:24Z</time>
      </trkpt>
      <trkpt lat="48.79261" lon="2.17223">
        <ele>181</ele>
        <time>2014-09-28T09:41:44Z</time>
      </trkpt>
      <trkpt lat="48.79253" lon="2.17224">
        <ele>183</ele>
        <time>2014-09-28T09:41:48Z</time>
      </trkpt>
      <trkpt lat="48.79241" lon="2.17235">
        <ele>186</ele>
        <time>2014-09-28T09:41:56Z</time>
      </trkpt>
      <trkpt lat="48.79237" lon="2.17243">
        <ele>186</ele>
        <time>2014-09-28T09:42:00Z</time>
      </trkpt>
      <trkpt lat="48.79212" lon="2.17258">
        <ele>178</ele>
        <time>2014-09-28T09:42:16Z</time>
      </trkpt>
      <trkpt lat="48.79209" lon="2.17248">
        <ele>168</ele>
        <time>2014-09-28T09:42:40Z</time>
      </trkpt>
      <trkpt lat="48.79207" lon="2.17232">
        <ele>166</ele>
        <time>2014-09-28T09:42:48Z</time>
      </trkpt>
      <trkpt lat="48.79205" lon="2.17212">
        <ele>165</ele>
        <time>2014-09-28T09:42:56Z</time>
      </trkpt>
      <trkpt lat="48.79204" lon="2.17196">
        <ele>167</ele>
        <time>2014-09-28T09:43:04Z</time>
      </trkpt>
      <trkpt lat="48.792" lon="2.1719">
        <ele>169</ele>
        <time>2014-09-28T09:43:08Z</time>
      </trkpt>
      <trkpt lat="48.79189" lon="2.17176">
        <ele>175</ele>
        <time>2014-09-28T09:43:18Z</time>
      </trkpt>
      <trkpt lat="48.79187" lon="2.17167">
        <ele>173</ele>
        <time>2014-09-28T09:43:21Z</time>
      </trkpt>
      <trkpt lat="48.79188" lon="2.17156">
        <ele>172</ele>
        <time>2014-09-28T09:43:24Z</time>
      </trkpt>
      <trkpt lat="48.79187" lon="2.17146">
        <ele>174</ele>
        <time>2014-09-28T09:43:27Z</time>
      </trkpt>
      <trkpt lat="48.79175" lon="2.17102">
        <ele>171</ele>
        <time>2014-09-28T09:43:44Z</time>
      </trkpt>
      <trkpt lat="48.79177" lon="2.17091">
        <ele>173</ele>
        <time>2014-09-28T09:43:47Z</time>
      </trkpt>
      <trkpt lat="48.79156" lon="2.17049">
        <ele>173</ele>
        <time>2014-09-28T09:44:06Z</time>
      </trkpt>
      <trkpt lat="48.79145" lon="2.17015">
        <ele>175</ele>
        <time>2014-09-28T09:44:21Z</time>
      </trkpt>
      <trkpt lat="48.79146" lon="2.17005">
        <ele>174</ele>
        <time>2014-09-28T09:44:26Z</time>
      </trkpt>
      <trkpt lat="48.79143" lon="2.16997">
        <ele>175</ele>
        <time>2014-09-28T09:44:31Z</time>
      </trkpt>
      <trkpt lat="48.79146" lon="2.16977">
        <ele>175</ele>
        <time>2014-09-28T09:44:39Z</time>
      </trkpt>
      <trkpt lat="48.79138" lon="2.16961">
        <ele>177</ele>
        <time>2014-09-28T09:44:45Z</time>
      </trkpt>
      <trkpt lat="48.79138" lon="2.16941">
        <ele>178</ele>
        <time>2014-09-28T09:44:53Z</time>
      </trkpt>
      <trkpt lat="48.7913" lon="2.16927">
        <ele>176</ele>
        <time>2014-09-28T09:44:59Z</time>
      </trkpt>
      <trkpt lat="48.79129" lon="2.16908">
        <ele>174</ele>
        <time>2014-09-28T09:45:07Z</time>
      </trkpt>
      <trkpt lat="48.79112" lon="2.16882">
        <ele>168</ele>
        <time>2014-09-28T09:45:21Z</time>
      </trkpt>
      <trkpt lat="48.79111" lon="2.16873">
        <ele>168</ele>
        <time>2014-09-28T09:45:25Z</time>
      </trkpt>
      <trkpt lat="48.79113" lon="2.16863">
        <ele>173</ele>
        <time>2014-09-28T09:45:31Z</time>
      </trkpt>
      <trkpt lat="48.79111" lon="2.16854">
        <ele>173</ele>
        <time>2014-09-28T09:45:35Z</time>
      </trkpt>
      <trkpt lat="48.79086" lon="2.16807">
        <ele>166</ele>
        <time>2014-09-28T09:45:57Z</time>
      </trkpt>
      <trkpt lat="48.79076" lon="2.16794">
        <ele>165</ele>
        <time>2014-09-28T09:46:05Z</time>
      </trkpt>
      <trkpt lat="48.79066" lon="2.16779">
        <ele>167</ele>
        <time>2014-09-28T09:46:14Z</time>
      </trkpt>
      <trkpt lat="48.79061" lon="2.16762">
        <ele>168</ele>
        <time>2014-09-28T09:46:25Z</time>
      </trkpt>
      <trkpt lat="48.79034" lon="2.16751">
        <ele>168</ele>
        <time>2014-09-28T09:46:37Z</time>
      </trkpt>
      <trkpt lat="48.79027" lon="2.16749">
        <ele>170</ele>
        <time>2014-09-28T09:46:39Z</time>
      </trkpt>
      <trkpt lat="48.7902" lon="2.16748">
        <ele>173</ele>
        <time>2014-09-28T09:46:43Z</time>
      </trkpt>
      <trkpt lat="48.79014" lon="2.16746">
        <ele>176</ele>
        <time>2014-09-28T09:46:47Z</time>
      </trkpt>
      <trkpt lat="48.78962" lon="2.16735">
        <ele>174</ele>
        <time>2014-09-28T09:47:17Z</time>
      </trkpt>
      <trkpt lat="48.78945" lon="2.1674">
        <ele>174</ele>
        <time>2014-09-28T09:47:33Z</time>
      </trkpt>
      <trkpt lat="48.7893" lon="2.16742">
        <ele>176</ele>
        <time>2014-09-28T09:47:39Z</time>
      </trkpt>
      <trkpt lat="48.78924" lon="2.1674">
        <ele>178</ele>
        <time>2014-09-28T09:47:41Z</time>
      </trkpt>
      <trkpt lat="48.78918" lon="2.16737">
        <ele>180</ele>
        <time>2014-09-28T09:47:46Z</time>
      </trkpt>
      <trkpt lat="48.78912" lon="2.16744">
        <ele>182</ele>
        <time>2014-09-28T09:47:53Z</time>
      </trkpt>
      <trkpt lat="48.78871" lon="2.16777">
        <ele>188</ele>
        <time>2014-09-28T09:48:20Z</time>
      </trkpt>
      <trkpt lat="48.78851" lon="2.16791">
        <ele>191</ele>
        <time>2014-09-28T09:48:32Z</time>
      </trkpt>
      <trkpt lat="48.78849" lon="2.16803">
        <ele>192</ele>
        <time>2014-09-28T09:48:36Z</time>
      </trkpt>
      <trkpt lat="48.78843" lon="2.16821">
        <ele>193</ele>
        <time>2014-09-28T09:48:56Z</time>
      </trkpt>
      <trkpt lat="48.78827" lon="2.1682">
        <ele>193</ele>
        <time>2014-09-28T09:49:32Z</time>
      </trkpt>
      <trkpt lat="48.78792" lon="2.1681">
        <ele>182</ele>
        <time>2014-09-28T09:49:55Z</time>
      </trkpt>
      <trkpt lat="48.78775" lon="2.16766">
        <ele>174</ele>
        <time>2014-09-28T09:50:25Z</time>
      </trkpt>
      <trkpt lat="48.78764" lon="2.16743">
        <ele>174</ele>
        <time>2014-09-28T09:50:35Z</time>
      </trkpt>
      <trkpt lat="48.78743" lon="2.16677">
        <ele>167</ele>
        <time>2014-09-28T09:51:03Z</time>
      </trkpt>
      <trkpt lat="48.78739" lon="2.16651">
        <ele>164</ele>
        <time>2014-09-28T09:51:16Z</time>
      </trkpt>
      <trkpt lat="48.78734" lon="2.16643">
        <ele>163</ele>
        <time>2014-09-28T09:51:20Z</time>
      </trkpt>
      <trkpt lat="48.7873" lon="2.16635">
        <ele>167</ele>
        <time>2014-09-28T09:51:24Z</time>
      </trkpt>
      <trkpt lat="48.78719" lon="2.16626">
        <ele>164</ele>
        <time>2014-09-28T09:51:31Z</time>
      </trkpt>
      <trkpt lat="48.78707" lon="2.16608">
        <ele>163</ele>
        <time>2014-09-28T09:51:40Z</time>
      </trkpt>
      <trkpt lat="48.78706" lon="2.16599">
        <ele>163</ele>
        <time>2014-09-28T09:51:44Z</time>
      </trkpt>
      <trkpt lat="48.787" lon="2.16583">
        <ele>160</ele>
        <time>2014-09-28T09:51:52Z</time>
      </trkpt>
      <trkpt lat="48.78701" lon="2.16564">
        <ele>157</ele>
        <time>2014-09-28T09:51:58Z</time>
      </trkpt>
      <trkpt lat="48.78697" lon="2.16559">
        <ele>160</ele>
        <time>2014-09-28T09:52:01Z</time>
      </trkpt>
      <trkpt lat="48.78694" lon="2.16552">
        <ele>159</ele>
        <time>2014-09-28T09:52:05Z</time>
      </trkpt>
      <trkpt lat="48.78687" lon="2.16539">
        <ele>163</ele>
        <time>2014-09-28T09:52:15Z</time>
      </trkpt>
      <trkpt lat="48.78664" lon="2.16474">
        <ele>163</ele>
        <time>2014-09-28T09:52:45Z</time>
      </trkpt>
      <trkpt lat="48.78619" lon="2.16446">
        <ele>163</ele>
        <time>2014-09-28T09:53:16Z</time>
      </trkpt>
      <trkpt lat="48.78603" lon="2.16436">
        <ele>164</ele>
        <time>2014-09-28T09:53:28Z</time>
      </trkpt>
      <trkpt lat="48.78604" lon="2.16441">
        <ele>168</ele>
        <time>2014-09-28T09:54:58Z</time>
      </trkpt>
      <trkpt lat="48.78612" lon="2.16452">
        <ele>169</ele>
        <time>2014-09-28T09:55:03Z</time>
      </trkpt>
      <trkpt lat="48.7861" lon="2.1645">
        <ele>166</ele>
        <time>2014-09-28T09:55:57Z</time>
      </trkpt>
      <trkpt lat="48.78597" lon="2.16435">
        <ele>169</ele>
        <time>2014-09-28T09:56:13Z</time>
      </trkpt>
      <trkpt lat="48.78591" lon="2.16434">
        <ele>168</ele>
        <time>2014-09-28T09:56:33Z</time>
      </trkpt>
      <trkpt lat="48.78573" lon="2.16433">
        <ele>169</ele>
        <time>2014-09-28T09:56:45Z</time>
      </trkpt>
      <trkpt lat="48.78537" lon="2.16429">
        <ele>176</ele>
        <time>2014-09-28T09:57:17Z</time>
      </trkpt>
      <trkpt lat="48.78497" lon="2.16413">
        <ele>173</ele>
        <time>2014-09-28T09:57:41Z</time>
      </trkpt>
      <trkpt lat="48.78492" lon="2.16406">
        <ele>173</ele>
        <time>2014-09-28T09:57:45Z</time>
      </trkpt>
      <trkpt lat="48.78457" lon="2.16385">
        <ele>173</ele>
        <time>2014-09-28T09:58:13Z</time>
      </trkpt>
      <trkpt lat="48.78434" lon="2.1637">
        <ele>175</ele>
        <time>2014-09-28T09:58:28Z</time>
      </trkpt>
      <trkpt lat="48.78395" lon="2.16332">
        <ele>178</ele>
        <time>2014-09-28T09:59:01Z</time>
      </trkpt>
      <trkpt lat="48.78374" lon="2.16327">
        <ele>180</ele>
        <time>2014-09-28T09:59:13Z</time>
      </trkpt>
      <trkpt lat="48.78334" lon="2.16281">
        <ele>177</ele>
        <time>2014-09-28T09:59:46Z</time>
      </trkpt>
      <trkpt lat="48.78331" lon="2.16274">
        <ele>176</ele>
        <time>2014-09-28T09:59:50Z</time>
      </trkpt>
      <trkpt lat="48.78316" lon="2.16263">
        <ele>177</ele>
        <time>2014-09-28T10:00:01Z</time>
      </trkpt>
      <trkpt lat="48.7831" lon="2.16257">
        <ele>179</ele>
        <time>2014-09-28T10:00:05Z</time>
      </trkpt>
      <trkpt lat="48.78297" lon="2.16256">
        <ele>181</ele>
        <time>2014-09-28T10:00:11Z</time>
      </trkpt>
      <trkpt lat="48.78285" lon="2.1626">
        <ele>179</ele>
        <time>2014-09-28T10:00:16Z</time>
      </trkpt>
      <trkpt lat="48.78278" lon="2.16273">
        <ele>183</ele>
        <time>2014-09-28T10:00:26Z</time>
      </trkpt>
      <trkpt lat="48.78264" lon="2.16328">
        <ele>184</ele>
        <time>2014-09-28T10:00:50Z</time>
      </trkpt>
      <trkpt lat="48.7825" lon="2.16397">
        <ele>183</ele>
        <time>2014-09-28T10:01:21Z</time>
      </trkpt>
      <trkpt lat="48.78235" lon="2.16441">
        <ele>184</ele>
        <time>2014-09-28T10:01:45Z</time>
      </trkpt>
      <trkpt lat="48.78229" lon="2.16451">
        <ele>186</ele>
        <time>2014-09-28T10:01:51Z</time>
      </trkpt>
      <trkpt lat="48.78226" lon="2.16452">
        <ele>186</ele>
        <time>2014-09-28T10:01:53Z</time>
      </trkpt>
      <trkpt lat="48.78221" lon="2.16448">
        <ele>187</ele>
        <time>2014-09-28T10:01:58Z</time>
      </trkpt>
      <trkpt lat="48.78215" lon="2.16447">
        <ele>190</ele>
        <time>2014-09-28T10:02:06Z</time>
      </trkpt>
      <trkpt lat="48.78167" lon="2.16437">
        <ele>185</ele>
        <time>2014-09-28T10:02:36Z</time>
      </trkpt>
      <trkpt lat="48.78121" lon="2.16421">
        <ele>176</ele>
        <time>2014-09-28T10:03:07Z</time>
      </trkpt>
      <trkpt lat="48.78119" lon="2.16411">
        <ele>173</ele>
        <time>2014-09-28T10:03:11Z</time>
      </trkpt>
      <trkpt lat="48.78121" lon="2.16389">
        <ele>175</ele>
        <time>2014-09-28T10:03:21Z</time>
      </trkpt>
      <trkpt lat="48.78122" lon="2.16375">
        <ele>178</ele>
        <time>2014-09-28T10:03:29Z</time>
      </trkpt>
      <trkpt lat="48.78127" lon="2.1634">
        <ele>178</ele>
        <time>2014-09-28T10:03:45Z</time>
      </trkpt>
      <trkpt lat="48.78128" lon="2.16276">
        <ele>174</ele>
        <time>2014-09-28T10:04:16Z</time>
      </trkpt>
      <trkpt lat="48.78112" lon="2.16235">
        <ele>174</ele>
        <time>2014-09-28T10:04:38Z</time>
      </trkpt>
      <trkpt lat="48.78083" lon="2.16169">
        <ele>162</ele>
        <time>2014-09-28T10:05:08Z</time>
      </trkpt>
      <trkpt lat="48.78083" lon="2.16166">
        <ele>163</ele>
        <time>2014-09-28T10:05:09Z</time>
      </trkpt>
      <trkpt lat="48.78083" lon="2.16091">
        <ele>164</ele>
        <time>2014-09-28T10:05:40Z</time>
      </trkpt>
      <trkpt lat="48.78083" lon="2.16083">
        <ele>165</ele>
        <time>2014-09-28T10:05:44Z</time>
      </trkpt>
      <trkpt lat="48.78079" lon="2.16076">
        <ele>165</ele>
        <time>2014-09-28T10:05:48Z</time>
      </trkpt>
      <trkpt lat="48.78076" lon="2.16074">
        <ele>163</ele>
        <time>2014-09-28T10:05:50Z</time>
      </trkpt>
      <trkpt lat="48.78067" lon="2.16065">
        <ele>162</ele>
        <time>2014-09-28T10:05:57Z</time>
      </trkpt>
      <trkpt lat="48.78057" lon="2.16052">
        <ele>165</ele>
        <time>2014-09-28T10:06:08Z</time>
      </trkpt>
      <trkpt lat="48.78043" lon="2.1604">
        <ele>166</ele>
        <time>2014-09-28T10:06:20Z</time>
      </trkpt>
      <trkpt lat="48.78035" lon="2.16035">
        <ele>167</ele>
        <time>2014-09-28T10:06:27Z</time>
      </trkpt>
      <trkpt lat="48.78033" lon="2.16031">
        <ele>169</ele>
        <time>2014-09-28T10:06:31Z</time>
      </trkpt>
      <trkpt lat="48.78007" lon="2.16013">
        <ele>171</ele>
        <time>2014-09-28T10:06:48Z</time>
      </trkpt>
      <trkpt lat="48.77972" lon="2.15981">
        <ele>169</ele>
        <time>2014-09-28T10:07:11Z</time>
      </trkpt>
      <trkpt lat="48.77967" lon="2.15975">
        <ele>174</ele>
        <time>2014-09-28T10:07:15Z</time>
      </trkpt>
      <trkpt lat="48.77929" lon="2.15941">
        <ele>170</ele>
        <time>2014-09-28T10:07:47Z</time>
      </trkpt>
      <trkpt lat="48.77875" lon="2.1591">
        <ele>170</ele>
        <time>2014-09-28T10:08:20Z</time>
      </trkpt>
      <trkpt lat="48.77859" lon="2.159">
        <ele>169</ele>
        <time>2014-09-28T10:08:31Z</time>
      </trkpt>
      <trkpt lat="48.77855" lon="2.15896">
        <ele>174</ele>
        <time>2014-09-28T10:08:35Z</time>
      </trkpt>
      <trkpt lat="48.77811" lon="2.15867">
        <ele>175</ele>
        <time>2014-09-28T10:09:07Z</time>
      </trkpt>
      <trkpt lat="48.77799" lon="2.1585">
        <ele>175</ele>
        <time>2014-09-28T10:09:17Z</time>
      </trkpt>
      <trkpt lat="48.77795" lon="2.15843">
        <ele>177</ele>
        <time>2014-09-28T10:09:21Z</time>
      </trkpt>
      <trkpt lat="48.77755" lon="2.15815">
        <ele>178</ele>
        <time>2014-09-28T10:09:52Z</time>
      </trkpt>
      <trkpt lat="48.7771" lon="2.15777">
        <ele>176</ele>
        <time>2014-09-28T10:10:22Z</time>
      </trkpt>
      <trkpt lat="48.77669" lon="2.15751">
        <ele>171</ele>
        <time>2014-09-28T10:10:53Z</time>
      </trkpt>
      <trkpt lat="48.7766" lon="2.15743">
        <ele>172</ele>
        <time>2014-09-28T10:11:01Z</time>
      </trkpt>
      <trkpt lat="48.77655" lon="2.15739">
        <ele>175</ele>
        <time>2014-09-28T10:11:06Z</time>
      </trkpt>
      <trkpt lat="48.7765" lon="2.15734">
        <ele>177</ele>
        <time>2014-09-28T10:11:11Z</time>
      </trkpt>
      <trkpt lat="48.77602" lon="2.15702">
        <ele>172</ele>
        <time>2014-09-28T10:11:42Z</time>
      </trkpt>
      <trkpt lat="48.77587" lon="2.15692">
        <ele>171</ele>
        <time>2014-09-28T10:11:54Z</time>
      </trkpt>
      <trkpt lat="48.77577" lon="2.15681">
        <ele>174</ele>
        <time>2014-09-28T10:12:03Z</time>
      </trkpt>
      <trkpt lat="48.77531" lon="2.15646">
        <ele>172</ele>
        <time>2014-09-28T10:12:34Z</time>
      </trkpt>
      <trkpt lat="48.77484" lon="2.15608">
        <ele>167</ele>
        <time>2014-09-28T10:13:07Z</time>
      </trkpt>
      <trkpt lat="48.7747" lon="2.15596">
        <ele>167</ele>
        <time>2014-09-28T10:13:19Z</time>
      </trkpt>
      <trkpt lat="48.77445" lon="2.15581">
        <ele>167</ele>
        <time>2014-09-28T10:13:35Z</time>
      </trkpt>
      <trkpt lat="48.7744" lon="2.15582">
        <ele>167</ele>
        <time>2014-09-28T10:13:38Z</time>
      </trkpt>
      <trkpt lat="48.77425" lon="2.15569">
        <ele>169</ele>
        <time>2014-09-28T10:13:50Z</time>
      </trkpt>
      <trkpt lat="48.7741" lon="2.15559">
        <ele>169</ele>
        <time>2014-09-28T10:13:59Z</time>
      </trkpt>
      <trkpt lat="48.77405" lon="2.15556">
        <ele>171</ele>
        <time>2014-09-28T10:14:02Z</time>
      </trkpt>
      <trkpt lat="48.77397" lon="2.15543">
        <ele>172</ele>
        <time>2014-09-28T10:14:09Z</time>
      </trkpt>
      <trkpt lat="48.77354" lon="2.15513">
        <ele>172</ele>
        <time>2014-09-28T10:14:39Z</time>
      </trkpt>
      <trkpt lat="48.77313" lon="2.15485">
        <ele>159</ele>
        <time>2014-09-28T10:15:38Z</time>
      </trkpt>
      <trkpt lat="48.77309" lon="2.15478">
        <ele>158</ele>
        <time>2014-09-28T10:16:58Z</time>
      </trkpt>
      <trkpt lat="48.77306" lon="2.15472">
        <ele>159</ele>
        <time>2014-09-28T10:17:02Z</time>
      </trkpt>
      <trkpt lat="48.77275" lon="2.15447">
        <ele>162</ele>
        <time>2014-09-28T10:17:30Z</time>
      </trkpt>
      <trkpt lat="48.77263" lon="2.15432">
        <ele>163</ele>
        <time>2014-09-28T10:17:43Z</time>
      </trkpt>
      <trkpt lat="48.77252" lon="2.15426">
        <ele>164</ele>
        <time>2014-09-28T10:17:53Z</time>
      </trkpt>
      <trkpt lat="48.7721" lon="2.15399">
        <ele>170</ele>
        <time>2014-09-28T10:18:21Z</time>
      </trkpt>
      <trkpt lat="48.772" lon="2.15387">
        <ele>172</ele>
        <time>2014-09-28T10:18:30Z</time>
      </trkpt>
      <trkpt lat="48.77198" lon="2.15379">
        <ele>174</ele>
        <time>2014-09-28T10:18:34Z</time>
      </trkpt>
      <trkpt lat="48.77152" lon="2.15348">
        <ele>171</ele>
        <time>2014-09-28T10:19:05Z</time>
      </trkpt>
      <trkpt lat="48.77146" lon="2.15345">
        <ele>169</ele>
        <time>2014-09-28T10:19:09Z</time>
      </trkpt>
      <trkpt lat="48.77136" lon="2.15334">
        <ele>167</ele>
        <time>2014-09-28T10:19:16Z</time>
      </trkpt>
      <trkpt lat="48.7713" lon="2.15332">
        <ele>168</ele>
        <time>2014-09-28T10:19:20Z</time>
      </trkpt>
      <trkpt lat="48.7712" lon="2.15324">
        <ele>171</ele>
        <time>2014-09-28T10:19:28Z</time>
      </trkpt>
      <trkpt lat="48.77107" lon="2.15286">
        <ele>160</ele>
        <time>2014-09-28T10:19:49Z</time>
      </trkpt>
      <trkpt lat="48.77109" lon="2.15278">
        <ele>157</ele>
        <time>2014-09-28T10:19:53Z</time>
      </trkpt>
      <trkpt lat="48.77104" lon="2.15256">
        <ele>157</ele>
        <time>2014-09-28T10:20:03Z</time>
      </trkpt>
      <trkpt lat="48.77068" lon="2.15201">
        <ele>156</ele>
        <time>2014-09-28T10:20:34Z</time>
      </trkpt>
      <trkpt lat="48.77064" lon="2.15194">
        <ele>152</ele>
        <time>2014-09-28T10:20:38Z</time>
      </trkpt>
      <trkpt lat="48.77048" lon="2.15187">
        <ele>153</ele>
        <time>2014-09-28T10:20:50Z</time>
      </trkpt>
      <trkpt lat="48.77043" lon="2.15186">
        <ele>157</ele>
        <time>2014-09-28T10:20:53Z</time>
      </trkpt>
      <trkpt lat="48.77012" lon="2.15143">
        <ele>146</ele>
        <time>2014-09-28T10:21:23Z</time>
      </trkpt>
      <trkpt lat="48.77001" lon="2.15124">
        <ele>146</ele>
        <time>2014-09-28T10:21:36Z</time>
      </trkpt>
      <trkpt lat="48.77003" lon="2.1509">
        <ele>146</ele>
        <time>2014-09-28T10:21:54Z</time>
      </trkpt>
      <trkpt lat="48.77001" lon="2.15083">
        <ele>143</ele>
        <time>2014-09-28T10:21:59Z</time>
      </trkpt>
      <trkpt lat="48.77004" lon="2.14998">
        <ele>132</ele>
        <time>2014-09-28T10:22:32Z</time>
      </trkpt>
      <trkpt lat="48.77005" lon="2.14989">
        <ele>134</ele>
        <time>2014-09-28T10:22:36Z</time>
      </trkpt>
      <trkpt lat="48.77019" lon="2.14944">
        <ele>134</ele>
        <time>2014-09-28T10:22:57Z</time>
      </trkpt>
      <trkpt lat="48.77023" lon="2.14939">
        <ele>136</ele>
        <time>2014-09-28T10:23:01Z</time>
      </trkpt>
      <trkpt lat="48.77028" lon="2.14937">
        <ele>135</ele>
        <time>2014-09-28T10:23:04Z</time>
      </trkpt>
      <trkpt lat="48.77034" lon="2.14933">
        <ele>138</ele>
        <time>2014-09-28T10:23:09Z</time>
      </trkpt>
      <trkpt lat="48.77052" lon="2.1488">
        <ele>137</ele>
        <time>2014-09-28T10:23:40Z</time>
      </trkpt>
      <trkpt lat="48.77068" lon="2.14846">
        <ele>121</ele>
        <time>2014-09-28T10:24:13Z</time>
      </trkpt>
      <trkpt lat="48.77079" lon="2.14824">
        <ele>122</ele>
        <time>2014-09-28T10:24:27Z</time>
      </trkpt>
      <trkpt lat="48.77085" lon="2.1482">
        <ele>126</ele>
        <time>2014-09-28T10:24:33Z</time>
      </trkpt>
      <trkpt lat="48.77118" lon="2.14782">
        <ele>122</ele>
        <time>2014-09-28T10:25:01Z</time>
      </trkpt>
      <trkpt lat="48.7714" lon="2.14787">
        <ele>114</ele>
        <time>2014-09-28T10:25:31Z</time>
      </trkpt>
      <trkpt lat="48.77147" lon="2.14787">
        <ele>111</ele>
        <time>2014-09-28T10:25:36Z</time>
      </trkpt>
      <trkpt lat="48.77151" lon="2.14782">
        <ele>110</ele>
        <time>2014-09-28T10:25:40Z</time>
      </trkpt>
      <trkpt lat="48.77159" lon="2.14751">
        <ele>110</ele>
        <time>2014-09-28T10:25:55Z</time>
      </trkpt>
      <trkpt lat="48.77156" lon="2.14744">
        <ele>106</ele>
        <time>2014-09-28T10:25:59Z</time>
      </trkpt>
      <trkpt lat="48.77107" lon="2.14719">
        <ele>102</ele>
        <time>2014-09-28T10:26:33Z</time>
      </trkpt>
      <trkpt lat="48.77105" lon="2.14711">
        <ele>104</ele>
        <time>2014-09-28T10:26:37Z</time>
      </trkpt>
      <trkpt lat="48.77086" lon="2.14696">
        <ele>102</ele>
        <time>2014-09-28T10:26:53Z</time>
      </trkpt>
      <trkpt lat="48.77064" lon="2.14667">
        <ele>101</ele>
        <time>2014-09-28T10:27:14Z</time>
      </trkpt>
      <trkpt lat="48.7706" lon="2.14639">
        <ele>101</ele>
        <time>2014-09-28T10:27:27Z</time>
      </trkpt>
      <trkpt lat="48.77063" lon="2.14632">
        <ele>103</ele>
        <time>2014-09-28T10:27:45Z</time>
      </trkpt>
      <trkpt lat="48.77065" lon="2.14622">
        <ele>104</ele>
        <time>2014-09-28T10:27:55Z</time>
      </trkpt>
      <trkpt lat="48.77071" lon="2.14596">
        <ele>105</ele>
        <time>2014-09-28T10:28:11Z</time>
      </trkpt>
      <trkpt lat="48.77068" lon="2.14589">
        <ele>106</ele>
        <time>2014-09-28T10:28:14Z</time>
      </trkpt>
      <trkpt lat="48.77067" lon="2.14579">
        <ele>109</ele>
        <time>2014-09-28T10:28:19Z</time>
      </trkpt>
      <trkpt lat="48.77068" lon="2.1457">
        <ele>111</ele>
        <time>2014-09-28T10:28:24Z</time>
      </trkpt>
      <trkpt lat="48.77072" lon="2.14564">
        <ele>110</ele>
        <time>2014-09-28T10:28:34Z</time>
      </trkpt>
      <trkpt lat="48.77074" lon="2.14498">
        <ele>111</ele>
        <time>2014-09-28T10:29:06Z</time>
      </trkpt>
      <trkpt lat="48.77081" lon="2.1447">
        <ele>114</ele>
        <time>2014-09-28T10:29:18Z</time>
      </trkpt>
      <trkpt lat="48.77079" lon="2.14453">
        <ele>117</ele>
        <time>2014-09-28T10:29:25Z</time>
      </trkpt>
      <trkpt lat="48.77081" lon="2.14445">
        <ele>117</ele>
        <time>2014-09-28T10:29:29Z</time>
      </trkpt>
      <trkpt lat="48.77088" lon="2.144">
        <ele>108</ele>
        <time>2014-09-28T10:29:50Z</time>
      </trkpt>
      <trkpt lat="48.77094" lon="2.14392">
        <ele>109</ele>
        <time>2014-09-28T10:29:54Z</time>
      </trkpt>
      <trkpt lat="48.77099" lon="2.14386">
        <ele>111</ele>
        <time>2014-09-28T10:29:59Z</time>
      </trkpt>
      <trkpt lat="48.77102" lon="2.14377">
        <ele>109</ele>
        <time>2014-09-28T10:30:03Z</time>
      </trkpt>
      <trkpt lat="48.77102" lon="2.14358">
        <ele>111</ele>
        <time>2014-09-28T10:30:12Z</time>
      </trkpt>
      <trkpt lat="48.77114" lon="2.14336">
        <ele>102</ele>
        <time>2014-09-28T10:30:21Z</time>
      </trkpt>
      <trkpt lat="48.77115" lon="2.14327">
        <ele>103</ele>
        <time>2014-09-28T10:30:25Z</time>
      </trkpt>
      <trkpt lat="48.77113" lon="2.14318">
        <ele>109</ele>
        <time>2014-09-28T10:30:29Z</time>
      </trkpt>
      <trkpt lat="48.77118" lon="2.14311">
        <ele>114</ele>
        <time>2014-09-28T10:30:34Z</time>
      </trkpt>
      <trkpt lat="48.77125" lon="2.14296">
        <ele>113</ele>
        <time>2014-09-28T10:30:45Z</time>
      </trkpt>
      <trkpt lat="48.77135" lon="2.14256">
        <ele>115</ele>
        <time>2014-09-28T10:31:06Z</time>
      </trkpt>
      <trkpt lat="48.77152" lon="2.1418">
        <ele>112</ele>
        <time>2014-09-28T10:31:40Z</time>
      </trkpt>
      <trkpt lat="48.77171" lon="2.14127">
        <ele>105</ele>
        <time>2014-09-28T10:32:08Z</time>
      </trkpt>
      <trkpt lat="48.77176" lon="2.1412">
        <ele>109</ele>
        <time>2014-09-28T10:32:15Z</time>
      </trkpt>
      <trkpt lat="48.7718" lon="2.14114">
        <ele>111</ele>
        <time>2014-09-28T10:32:20Z</time>
      </trkpt>
      <trkpt lat="48.77194" lon="2.1411">
        <ele>113</ele>
        <time>2014-09-28T10:32:31Z</time>
      </trkpt>
      <trkpt lat="48.77198" lon="2.14103">
        <ele>114</ele>
        <time>2014-09-28T10:32:35Z</time>
      </trkpt>
      <trkpt lat="48.77218" lon="2.14091">
        <ele>109</ele>
        <time>2014-09-28T10:32:55Z</time>
      </trkpt>
      <trkpt lat="48.77226" lon="2.14094">
        <ele>115</ele>
        <time>2014-09-28T10:33:08Z</time>
      </trkpt>
      <trkpt lat="48.77232" lon="2.14094">
        <ele>118</ele>
        <time>2014-09-28T10:33:15Z</time>
      </trkpt>
      <trkpt lat="48.77259" lon="2.14089">
        <ele>119</ele>
        <time>2014-09-28T10:33:40Z</time>
      </trkpt>
      <trkpt lat="48.77265" lon="2.14086">
        <ele>123</ele>
        <time>2014-09-28T10:33:44Z</time>
      </trkpt>
      <trkpt lat="48.77281" lon="2.14092">
        <ele>126</ele>
        <time>2014-09-28T10:33:59Z</time>
      </trkpt>
      <trkpt lat="48.77291" lon="2.14097">
        <ele>125</ele>
        <time>2014-09-28T10:34:09Z</time>
      </trkpt>
      <trkpt lat="48.77298" lon="2.14098">
        <ele>129</ele>
        <time>2014-09-28T10:34:15Z</time>
      </trkpt>
      <trkpt lat="48.77303" lon="2.14097">
        <ele>131</ele>
        <time>2014-09-28T10:34:19Z</time>
      </trkpt>
      <trkpt lat="48.77309" lon="2.14098">
        <ele>135</ele>
        <time>2014-09-28T10:34:24Z</time>
      </trkpt>
      <trkpt lat="48.77333" lon="2.1408">
        <ele>134</ele>
        <time>2014-09-28T10:34:52Z</time>
      </trkpt>
      <trkpt lat="48.77352" lon="2.14035">
        <ele>130</ele>
        <time>2014-09-28T10:35:17Z</time>
      </trkpt>
      <trkpt lat="48.77354" lon="2.14027">
        <ele>131</ele>
        <time>2014-09-28T10:35:21Z</time>
      </trkpt>
      <trkpt lat="48.77357" lon="2.14013">
        <ele>137</ele>
        <time>2014-09-28T10:35:31Z</time>
      </trkpt>
      <trkpt lat="48.77362" lon="2.14">
        <ele>138</ele>
        <time>2014-09-28T10:35:40Z</time>
      </trkpt>
      <trkpt lat="48.77365" lon="2.13992">
        <ele>141</ele>
        <time>2014-09-28T10:35:44Z</time>
      </trkpt>
      <trkpt lat="48.77373" lon="2.1398">
        <ele>146</ele>
        <time>2014-09-28T10:35:53Z</time>
      </trkpt>
      <trkpt lat="48.77388" lon="2.13974">
        <ele>148</ele>
        <time>2014-09-28T10:36:10Z</time>
      </trkpt>
      <trkpt lat="48.77393" lon="2.13975">
        <ele>151</ele>
        <time>2014-09-28T10:36:15Z</time>
      </trkpt>
      <trkpt lat="48.77431" lon="2.13966">
        <ele>148</ele>
        <time>2014-09-28T10:36:45Z</time>
      </trkpt>
      <trkpt lat="48.77442" lon="2.13964">
        <ele>150</ele>
        <time>2014-09-28T10:36:53Z</time>
      </trkpt>
      <trkpt lat="48.77456" lon="2.13951">
        <ele>150</ele>
        <time>2014-09-28T10:37:04Z</time>
      </trkpt>
      <trkpt lat="48.77467" lon="2.1395">
        <ele>154</ele>
        <time>2014-09-28T10:37:11Z</time>
      </trkpt>
      <trkpt lat="48.77501" lon="2.13917">
        <ele>154</ele>
        <time>2014-09-28T10:37:39Z</time>
      </trkpt>
      <trkpt lat="48.77506" lon="2.13912">
        <ele>156</ele>
        <time>2014-09-28T10:37:43Z</time>
      </trkpt>
      <trkpt lat="48.7752" lon="2.13858">
        <ele>154</ele>
        <time>2014-09-28T10:38:05Z</time>
      </trkpt>
      <trkpt lat="48.77524" lon="2.13844">
        <ele>154</ele>
        <time>2014-09-28T10:38:11Z</time>
      </trkpt>
      <trkpt lat="48.77525" lon="2.13812">
        <ele>157</ele>
        <time>2014-09-28T10:38:24Z</time>
      </trkpt>
      <trkpt lat="48.77538" lon="2.13766">
        <ele>157</ele>
        <time>2014-09-28T10:38:45Z</time>
      </trkpt>
      <trkpt lat="48.77559" lon="2.13698">
        <ele>158</ele>
        <time>2014-09-28T10:39:14Z</time>
      </trkpt>
      <trkpt lat="48.77562" lon="2.13691">
        <ele>161</ele>
        <time>2014-09-28T10:39:18Z</time>
      </trkpt>
      <trkpt lat="48.77572" lon="2.13618">
        <ele>157</ele>
        <time>2014-09-28T10:39:50Z</time>
      </trkpt>
      <trkpt lat="48.77574" lon="2.13609">
        <ele>155</ele>
        <time>2014-09-28T10:39:53Z</time>
      </trkpt>
      <trkpt lat="48.77588" lon="2.13536">
        <ele>158</ele>
        <time>2014-09-28T10:40:26Z</time>
      </trkpt>
      <trkpt lat="48.7759" lon="2.13528">
        <ele>158</ele>
        <time>2014-09-28T10:40:30Z</time>
      </trkpt>
      <trkpt lat="48.77593" lon="2.13519">
        <ele>160</ele>
        <time>2014-09-28T10:40:34Z</time>
      </trkpt>
      <trkpt lat="48.77595" lon="2.13511">
        <ele>163</ele>
        <time>2014-09-28T10:40:38Z</time>
      </trkpt>
      <trkpt lat="48.77598" lon="2.13503">
        <ele>166</ele>
        <time>2014-09-28T10:40:43Z</time>
      </trkpt>
      <trkpt lat="48.77609" lon="2.13447">
        <ele>157</ele>
        <time>2014-09-28T10:41:05Z</time>
      </trkpt>
      <trkpt lat="48.77614" lon="2.13444">
        <ele>162</ele>
        <time>2014-09-28T10:41:10Z</time>
      </trkpt>
      <trkpt lat="48.77618" lon="2.1345">
        <ele>164</ele>
        <time>2014-09-28T10:41:18Z</time>
      </trkpt>
      <trkpt lat="48.77633" lon="2.13474">
        <ele>166</ele>
        <time>2014-09-28T10:41:33Z</time>
      </trkpt>
      <trkpt lat="48.77652" lon="2.13489">
        <ele>161</ele>
        <time>2014-09-28T10:41:47Z</time>
      </trkpt>
      <trkpt lat="48.77655" lon="2.13497">
        <ele>164</ele>
        <time>2014-09-28T10:41:51Z</time>
      </trkpt>
      <trkpt lat="48.77659" lon="2.13503">
        <ele>169</ele>
        <time>2014-09-28T10:41:54Z</time>
      </trkpt>
      <trkpt lat="48.77671" lon="2.13518">
        <ele>170</ele>
        <time>2014-09-28T10:42:05Z</time>
      </trkpt>
      <trkpt lat="48.77677" lon="2.1352">
        <ele>167</ele>
        <time>2014-09-28T10:42:08Z</time>
      </trkpt>
      <trkpt lat="48.77696" lon="2.13543">
        <ele>169</ele>
        <time>2014-09-28T10:42:22Z</time>
      </trkpt>
      <trkpt lat="48.777" lon="2.13548">
        <ele>175</ele>
        <time>2014-09-28T10:42:26Z</time>
      </trkpt>
      <trkpt lat="48.77719" lon="2.13571">
        <ele>173</ele>
        <time>2014-09-28T10:42:45Z</time>
      </trkpt>
      <trkpt lat="48.77735" lon="2.13595">
        <ele>172</ele>
        <time>2014-09-28T10:43:00Z</time>
      </trkpt>
      <trkpt lat="48.77741" lon="2.13597">
        <ele>173</ele>
        <time>2014-09-28T10:43:04Z</time>
      </trkpt>
      <trkpt lat="48.77747" lon="2.13605">
        <ele>169</ele>
        <time>2014-09-28T10:43:07Z</time>
      </trkpt>
      <trkpt lat="48.7775" lon="2.13614">
        <ele>170</ele>
        <time>2014-09-28T10:43:10Z</time>
      </trkpt>
      <trkpt lat="48.77752" lon="2.13622">
        <ele>174</ele>
        <time>2014-09-28T10:43:13Z</time>
      </trkpt>
      <trkpt lat="48.77787" lon="2.13653">
        <ele>175</ele>
        <time>2014-09-28T10:43:42Z</time>
      </trkpt>
      <trkpt lat="48.7779" lon="2.13659">
        <ele>178</ele>
        <time>2014-09-28T10:43:45Z</time>
      </trkpt>
      <trkpt lat="48.77798" lon="2.13667">
        <ele>181</ele>
        <time>2014-09-28T10:43:52Z</time>
      </trkpt>
      <trkpt lat="48.7783" lon="2.13698">
        <ele>179</ele>
        <time>2014-09-28T10:44:20Z</time>
      </trkpt>
      <trkpt lat="48.77846" lon="2.13719">
        <ele>182</ele>
        <time>2014-09-28T10:44:36Z</time>
      </trkpt>
      <trkpt lat="48.77884" lon="2.13763">
        <ele>179</ele>
        <time>2014-09-28T10:45:07Z</time>
      </trkpt>
      <trkpt lat="48.77897" lon="2.13777">
        <ele>175</ele>
        <time>2014-09-28T10:45:16Z</time>
      </trkpt>
      <trkpt lat="48.77938" lon="2.13823">
        <ele>172</ele>
        <time>2014-09-28T10:45:47Z</time>
      </trkpt>
      <trkpt lat="48.77943" lon="2.13825">
        <ele>172</ele>
        <time>2014-09-28T10:45:50Z</time>
      </trkpt>
      <trkpt lat="48.7797" lon="2.13838">
        <ele>168</ele>
        <time>2014-09-28T10:46:09Z</time>
      </trkpt>
      <trkpt lat="48.77986" lon="2.13859">
        <ele>167</ele>
        <time>2014-09-28T10:46:23Z</time>
      </trkpt>
      <trkpt lat="48.7799" lon="2.13867">
        <ele>170</ele>
        <time>2014-09-28T10:46:27Z</time>
      </trkpt>
      <trkpt lat="48.77995" lon="2.13874">
        <ele>174</ele>
        <time>2014-09-28T10:46:31Z</time>
      </trkpt>
      <trkpt lat="48.77999" lon="2.13881">
        <ele>176</ele>
        <time>2014-09-28T10:46:35Z</time>
      </trkpt>
      <trkpt lat="48.78015" lon="2.13908">
        <ele>181</ele>
        <time>2014-09-28T10:46:51Z</time>
      </trkpt>
      <trkpt lat="48.78021" lon="2.1391">
        <ele>179</ele>
        <time>2014-09-28T10:46:56Z</time>
      </trkpt>
      <trkpt lat="48.78036" lon="2.13926">
        <ele>179</ele>
        <time>2014-09-28T10:47:09Z</time>
      </trkpt>
      <trkpt lat="48.78041" lon="2.13931">
        <ele>181</ele>
        <time>2014-09-28T10:47:13Z</time>
      </trkpt>
      <trkpt lat="48.78082" lon="2.13984">
        <ele>180</ele>
        <time>2014-09-28T10:47:45Z</time>
      </trkpt>
      <trkpt lat="48.78101" lon="2.14004">
        <ele>183</ele>
        <time>2014-09-28T10:48:00Z</time>
      </trkpt>
      <trkpt lat="48.78104" lon="2.1401">
        <ele>185</ele>
        <time>2014-09-28T10:48:03Z</time>
      </trkpt>
      <trkpt lat="48.78109" lon="2.14015">
        <ele>187</ele>
        <time>2014-09-28T10:48:07Z</time>
      </trkpt>
      <trkpt lat="48.78116" lon="2.1403">
        <ele>187</ele>
        <time>2014-09-28T10:48:15Z</time>
      </trkpt>
      <trkpt lat="48.78121" lon="2.14034">
        <ele>187</ele>
        <time>2014-09-28T10:48:19Z</time>
      </trkpt>
      <trkpt lat="48.78132" lon="2.14055">
        <ele>183</ele>
        <time>2014-09-28T10:48:31Z</time>
      </trkpt>
      <trkpt lat="48.78159" lon="2.14073">
        <ele>185</ele>
        <time>2014-09-28T10:48:50Z</time>
      </trkpt>
      <trkpt lat="48.78169" lon="2.14084">
        <ele>188</ele>
        <time>2014-09-28T10:48:57Z</time>
      </trkpt>
      <trkpt lat="48.78172" lon="2.14089">
        <ele>193</ele>
        <time>2014-09-28T10:49:00Z</time>
      </trkpt>
      <trkpt lat="48.78176" lon="2.14097">
        <ele>195</ele>
        <time>2014-09-28T10:49:04Z</time>
      </trkpt>
      <trkpt lat="48.7818" lon="2.14103">
        <ele>200</ele>
        <time>2014-09-28T10:49:08Z</time>
      </trkpt>
      <trkpt lat="48.78188" lon="2.14114">
        <ele>202</ele>
        <time>2014-09-28T10:49:15Z</time>
      </trkpt>
      <trkpt lat="48.78196" lon="2.14127">
        <ele>204</ele>
        <time>2014-09-28T10:49:23Z</time>
      </trkpt>
      <trkpt lat="48.78204" lon="2.14141">
        <ele>204</ele>
        <time>2014-09-28T10:49:31Z</time>
      </trkpt>
      <trkpt lat="48.78207" lon="2.14148">
        <ele>206</ele>
        <time>2014-09-28T10:49:36Z</time>
      </trkpt>
      <trkpt lat="48.78212" lon="2.14152">
        <ele>209</ele>
        <time>2014-09-28T10:49:41Z</time>
      </trkpt>
      <trkpt lat="48.7825" lon="2.14193">
        <ele>203</ele>
        <time>2014-09-28T10:50:11Z</time>
      </trkpt>
      <trkpt lat="48.78289" lon="2.14227">
        <ele>199</ele>
        <time>2014-09-28T10:50:41Z</time>
      </trkpt>
      <trkpt lat="48.78305" lon="2.14247">
        <ele>197</ele>
        <time>2014-09-28T10:50:53Z</time>
      </trkpt>
      <trkpt lat="48.78313" lon="2.14262">
        <ele>198</ele>
        <time>2014-09-28T10:51:00Z</time>
      </trkpt>
      <trkpt lat="48.78342" lon="2.14288">
        <ele>197</ele>
        <time>2014-09-28T10:51:27Z</time>
      </trkpt>
      <trkpt lat="48.78363" lon="2.14316">
        <ele>196</ele>
        <time>2014-09-28T10:51:44Z</time>
      </trkpt>
      <trkpt lat="48.78377" lon="2.14335">
        <ele>197</ele>
        <time>2014-09-28T10:51:58Z</time>
      </trkpt>
      <trkpt lat="48.78381" lon="2.14341">
        <ele>199</ele>
        <time>2014-09-28T10:52:00Z</time>
      </trkpt>
      <trkpt lat="48.78402" lon="2.14367">
        <ele>197</ele>
        <time>2014-09-28T10:52:20Z</time>
      </trkpt>
      <trkpt lat="48.78433" lon="2.14395">
        <ele>198</ele>
        <time>2014-09-28T10:52:43Z</time>
      </trkpt>
      <trkpt lat="48.78446" lon="2.14411">
        <ele>196</ele>
        <time>2014-09-28T10:52:53Z</time>
      </trkpt>
      <trkpt lat="48.78467" lon="2.14427">
        <ele>199</ele>
        <time>2014-09-28T10:53:07Z</time>
      </trkpt>
      <trkpt lat="48.78474" lon="2.14442">
        <ele>196</ele>
        <time>2014-09-28T10:53:13Z</time>
      </trkpt>
      <trkpt lat="48.78512" lon="2.14476">
        <ele>181</ele>
        <time>2014-09-28T10:53:45Z</time>
      </trkpt>
      <trkpt lat="48.7852" lon="2.14489">
        <ele>178</ele>
        <time>2014-09-28T10:53:49Z</time>
      </trkpt>
      <trkpt lat="48.78525" lon="2.14492">
        <ele>179</ele>
        <time>2014-09-28T10:53:52Z</time>
      </trkpt>
      <trkpt lat="48.78533" lon="2.14506">
        <ele>183</ele>
        <time>2014-09-28T10:54:01Z</time>
      </trkpt>
      <trkpt lat="48.78553" lon="2.14521">
        <ele>182</ele>
        <time>2014-09-28T10:54:14Z</time>
      </trkpt>
      <trkpt lat="48.78557" lon="2.14538">
        <ele>175</ele>
        <time>2014-09-28T10:54:20Z</time>
      </trkpt>
      <trkpt lat="48.78562" lon="2.14541">
        <ele>174</ele>
        <time>2014-09-28T10:54:23Z</time>
      </trkpt>
      <trkpt lat="48.7857" lon="2.14557">
        <ele>175</ele>
        <time>2014-09-28T10:54:53Z</time>
      </trkpt>
      <trkpt lat="48.7857" lon="2.14555">
        <ele>180</ele>
        <time>2014-09-28T10:55:46Z</time>
      </trkpt>
      <trkpt lat="48.78572" lon="2.14553">
        <ele>171</ele>
        <time>2014-09-28T10:57:17Z</time>
      </trkpt>
      <trkpt lat="48.78575" lon="2.14555">
        <ele>171</ele>
        <time>2014-09-28T10:58:02Z</time>
      </trkpt>
      <trkpt lat="48.78577" lon="2.14559">
        <ele>171</ele>
        <time>2014-09-28T10:58:05Z</time>
      </trkpt>
      <trkpt lat="48.78583" lon="2.14564">
        <ele>174</ele>
        <time>2014-09-28T10:58:11Z</time>
      </trkpt>
      <trkpt lat="48.78592" lon="2.14572">
        <ele>174</ele>
        <time>2014-09-28T10:58:22Z</time>
      </trkpt>
      <trkpt lat="48.78601" lon="2.14579">
        <ele>175</ele>
        <time>2014-09-28T10:58:31Z</time>
      </trkpt>
      <trkpt lat="48.78612" lon="2.14587">
        <ele>176</ele>
        <time>2014-09-28T10:58:43Z</time>
      </trkpt>
      <trkpt lat="48.78616" lon="2.1459">
        <ele>178</ele>
        <time>2014-09-28T10:58:46Z</time>
      </trkpt>
      <trkpt lat="48.7863" lon="2.14595">
        <ele>178</ele>
        <time>2014-09-28T10:58:57Z</time>
      </trkpt>
      <trkpt lat="48.78641" lon="2.14598">
        <ele>180</ele>
        <time>2014-09-28T10:59:04Z</time>
      </trkpt>
      <trkpt lat="48.7868" lon="2.14625">
        <ele>172</ele>
        <time>2014-09-28T10:59:32Z</time>
      </trkpt>
      <trkpt lat="48.78682" lon="2.14633">
        <ele>170</ele>
        <time>2014-09-28T10:59:36Z</time>
      </trkpt>
      <trkpt lat="48.78677" lon="2.14644">
        <ele>166</ele>
        <time>2014-09-28T10:59:44Z</time>
      </trkpt>
      <trkpt lat="48.78669" lon="2.14653">
        <ele>167</ele>
        <time>2014-09-28T10:59:53Z</time>
      </trkpt>
      <trkpt lat="48.78662" lon="2.14713">
        <ele>162</ele>
        <time>2014-09-28T11:00:23Z</time>
      </trkpt>
      <trkpt lat="48.78665" lon="2.14729">
        <ele>167</ele>
        <time>2014-09-28T11:00:33Z</time>
      </trkpt>
      <trkpt lat="48.78659" lon="2.14766">
        <ele>162</ele>
        <time>2014-09-28T11:00:47Z</time>
      </trkpt>
      <trkpt lat="48.78661" lon="2.14773">
        <ele>164</ele>
        <time>2014-09-28T11:00:51Z</time>
      </trkpt>
      <trkpt lat="48.78664" lon="2.1478">
        <ele>166</ele>
        <time>2014-09-28T11:00:55Z</time>
      </trkpt>
      <trkpt lat="48.78672" lon="2.14791">
        <ele>167</ele>
        <time>2014-09-28T11:01:05Z</time>
      </trkpt>
      <trkpt lat="48.7867" lon="2.14799">
        <ele>162</ele>
        <time>2014-09-28T11:01:11Z</time>
      </trkpt>
      <trkpt lat="48.78671" lon="2.14806">
        <ele>163</ele>
        <time>2014-09-28T11:01:15Z</time>
      </trkpt>
      <trkpt lat="48.78674" lon="2.14828">
        <ele>156</ele>
        <time>2014-09-28T11:01:27Z</time>
      </trkpt>
      <trkpt lat="48.78679" lon="2.14831">
        <ele>154</ele>
        <time>2014-09-28T11:01:31Z</time>
      </trkpt>
      <trkpt lat="48.78681" lon="2.14837">
        <ele>153</ele>
        <time>2014-09-28T11:01:35Z</time>
      </trkpt>
      <trkpt lat="48.78684" lon="2.14852">
        <ele>155</ele>
        <time>2014-09-28T11:01:42Z</time>
      </trkpt>
      <trkpt lat="48.78688" lon="2.14855">
        <ele>154</ele>
        <time>2014-09-28T11:01:46Z</time>
      </trkpt>
      <trkpt lat="48.7869" lon="2.14868">
        <ele>160</ele>
        <time>2014-09-28T11:01:55Z</time>
      </trkpt>
      <trkpt lat="48.78681" lon="2.1493">
        <ele>160</ele>
        <time>2014-09-28T11:02:25Z</time>
      </trkpt>
      <trkpt lat="48.78671" lon="2.14969">
        <ele>152</ele>
        <time>2014-09-28T11:02:40Z</time>
      </trkpt>
      <trkpt lat="48.78667" lon="2.14972">
        <ele>154</ele>
        <time>2014-09-28T11:02:44Z</time>
      </trkpt>
      <trkpt lat="48.78656" lon="2.1497">
        <ele>155</ele>
        <time>2014-09-28T11:02:52Z</time>
      </trkpt>
      <trkpt lat="48.78652" lon="2.14976">
        <ele>152</ele>
        <time>2014-09-28T11:02:56Z</time>
      </trkpt>
      <trkpt lat="48.78653" lon="2.14987">
        <ele>149</ele>
        <time>2014-09-28T11:03:03Z</time>
      </trkpt>
      <trkpt lat="48.78682" lon="2.14994">
        <ele>144</ele>
        <time>2014-09-28T11:03:21Z</time>
      </trkpt>
      <trkpt lat="48.78703" lon="2.15009">
        <ele>143</ele>
        <time>2014-09-28T11:03:33Z</time>
      </trkpt>
      <trkpt lat="48.78721" lon="2.1504">
        <ele>150</ele>
        <time>2014-09-28T11:03:46Z</time>
      </trkpt>
      <trkpt lat="48.78728" lon="2.15041">
        <ele>151</ele>
        <time>2014-09-28T11:03:52Z</time>
      </trkpt>
      <trkpt lat="48.78732" lon="2.15044">
        <ele>151</ele>
        <time>2014-09-28T11:03:56Z</time>
      </trkpt>
      <trkpt lat="48.78732" lon="2.15048">
        <ele>150</ele>
        <time>2014-09-28T11:04:00Z</time>
      </trkpt>
      <trkpt lat="48.78731" lon="2.1505">
        <ele>150</ele>
        <time>2014-09-28T11:04:02Z</time>
      </trkpt>
      <trkpt lat="48.78732" lon="2.15061">
        <ele>147</ele>
        <time>2014-09-28T11:04:13Z</time>
      </trkpt>
      <trkpt lat="48.78731" lon="2.15064">
        <ele>145</ele>
        <time>2014-09-28T11:04:17Z</time>
      </trkpt>
      <trkpt lat="48.78733" lon="2.15067">
        <ele>148</ele>
        <time>2014-09-28T11:04:20Z</time>
      </trkpt>
      <trkpt lat="48.78737" lon="2.15075">
        <ele>146</ele>
        <time>2014-09-28T11:04:27Z</time>
      </trkpt>
      <trkpt lat="48.78735" lon="2.15078">
        <ele>149</ele>
        <time>2014-09-28T11:04:33Z</time>
      </trkpt>
      <trkpt lat="48.78733" lon="2.15079">
        <ele>147</ele>
        <time>2014-09-28T11:04:35Z</time>
      </trkpt>
      <trkpt lat="48.78728" lon="2.1508">
        <ele>149</ele>
        <time>2014-09-28T11:04:40Z</time>
      </trkpt>
      <trkpt lat="48.78726" lon="2.15082">
        <ele>149</ele>
        <time>2014-09-28T11:04:42Z</time>
      </trkpt>
      <trkpt lat="48.78722" lon="2.15088">
        <ele>152</ele>
        <time>2014-09-28T11:04:46Z</time>
      </trkpt>
      <trkpt lat="48.78718" lon="2.15098">
        <ele>155</ele>
        <time>2014-09-28T11:04:52Z</time>
      </trkpt>
      <trkpt lat="48.78706" lon="2.1511">
        <ele>158</ele>
        <time>2014-09-28T11:05:05Z</time>
      </trkpt>
      <trkpt lat="48.78699" lon="2.15114">
        <ele>160</ele>
        <time>2014-09-28T11:05:11Z</time>
      </trkpt>
      <trkpt lat="48.78673" lon="2.1518">
        <ele>151</ele>
        <time>2014-09-28T11:05:42Z</time>
      </trkpt>
      <trkpt lat="48.78671" lon="2.15187">
        <ele>150</ele>
        <time>2014-09-28T11:05:46Z</time>
      </trkpt>
      <trkpt lat="48.78665" lon="2.15194">
        <ele>149</ele>
        <time>2014-09-28T11:05:52Z</time>
      </trkpt>
      <trkpt lat="48.78658" lon="2.1521">
        <ele>150</ele>
        <time>2014-09-28T11:06:02Z</time>
      </trkpt>
      <trkpt lat="48.78657" lon="2.15217">
        <ele>150</ele>
        <time>2014-09-28T11:06:06Z</time>
      </trkpt>
      <trkpt lat="48.78657" lon="2.15222">
        <ele>147</ele>
        <time>2014-09-28T11:06:09Z</time>
      </trkpt>
      <trkpt lat="48.78664" lon="2.15236">
        <ele>146</ele>
        <time>2014-09-28T11:06:18Z</time>
      </trkpt>
      <trkpt lat="48.78662" lon="2.15244">
        <ele>149</ele>
        <time>2014-09-28T11:06:31Z</time>
      </trkpt>
      <trkpt lat="48.78661" lon="2.1526">
        <ele>150</ele>
        <time>2014-09-28T11:06:41Z</time>
      </trkpt>
      <trkpt lat="48.78662" lon="2.1527">
        <ele>155</ele>
        <time>2014-09-28T11:06:46Z</time>
      </trkpt>
      <trkpt lat="48.78672" lon="2.15307">
        <ele>154</ele>
        <time>2014-09-28T11:07:06Z</time>
      </trkpt>
      <trkpt lat="48.78675" lon="2.1532">
        <ele>155</ele>
        <time>2014-09-28T11:07:16Z</time>
      </trkpt>
      <trkpt lat="48.78674" lon="2.15338">
        <ele>146</ele>
        <time>2014-09-28T11:07:24Z</time>
      </trkpt>
      <trkpt lat="48.78677" lon="2.15346">
        <ele>148</ele>
        <time>2014-09-28T11:07:28Z</time>
      </trkpt>
      <trkpt lat="48.78679" lon="2.15353">
        <ele>150</ele>
        <time>2014-09-28T11:07:32Z</time>
      </trkpt>
      <trkpt lat="48.78683" lon="2.15368">
        <ele>153</ele>
        <time>2014-09-28T11:07:40Z</time>
      </trkpt>
      <trkpt lat="48.78704" lon="2.15397">
        <ele>155</ele>
        <time>2014-09-28T11:08:02Z</time>
      </trkpt>
      <trkpt lat="48.78724" lon="2.15441">
        <ele>152</ele>
        <time>2014-09-28T11:08:27Z</time>
      </trkpt>
      <trkpt lat="48.7873" lon="2.15453">
        <ele>154</ele>
        <time>2014-09-28T11:08:37Z</time>
      </trkpt>
      <trkpt lat="48.78735" lon="2.15456">
        <ele>162</ele>
        <time>2014-09-28T11:08:41Z</time>
      </trkpt>
      <trkpt lat="48.7875" lon="2.15485">
        <ele>161</ele>
        <time>2014-09-28T11:08:56Z</time>
      </trkpt>
      <trkpt lat="48.7875" lon="2.15493">
        <ele>164</ele>
        <time>2014-09-28T11:09:00Z</time>
      </trkpt>
      <trkpt lat="48.78748" lon="2.15501">
        <ele>169</ele>
        <time>2014-09-28T11:09:05Z</time>
      </trkpt>
      <trkpt lat="48.78749" lon="2.15516">
        <ele>172</ele>
        <time>2014-09-28T11:09:15Z</time>
      </trkpt>
      <trkpt lat="48.78743" lon="2.15539">
        <ele>174</ele>
        <time>2014-09-28T11:09:28Z</time>
      </trkpt>
      <trkpt lat="48.78743" lon="2.15546">
        <ele>178</ele>
        <time>2014-09-28T11:09:31Z</time>
      </trkpt>
      <trkpt lat="48.78743" lon="2.1557">
        <ele>180</ele>
        <time>2014-09-28T11:09:46Z</time>
      </trkpt>
      <trkpt lat="48.78749" lon="2.1559">
        <ele>181</ele>
        <time>2014-09-28T11:09:54Z</time>
      </trkpt>
      <trkpt lat="48.78762" lon="2.15617">
        <ele>177</ele>
        <time>2014-09-28T11:10:05Z</time>
      </trkpt>
      <trkpt lat="48.78785" lon="2.15648">
        <ele>165</ele>
        <time>2014-09-28T11:10:32Z</time>
      </trkpt>
      <trkpt lat="48.78782" lon="2.15672">
        <ele>169</ele>
        <time>2014-09-28T11:10:46Z</time>
      </trkpt>
      <trkpt lat="48.78781" lon="2.15681">
        <ele>171</ele>
        <time>2014-09-28T11:10:51Z</time>
      </trkpt>
      <trkpt lat="48.78781" lon="2.15688">
        <ele>174</ele>
        <time>2014-09-28T11:10:55Z</time>
      </trkpt>
      <trkpt lat="48.7878" lon="2.15696">
        <ele>176</ele>
        <time>2014-09-28T11:11:00Z</time>
      </trkpt>
      <trkpt lat="48.78764" lon="2.15774">
        <ele>168</ele>
        <time>2014-09-28T11:11:35Z</time>
      </trkpt>
      <trkpt lat="48.78756" lon="2.15787">
        <ele>167</ele>
        <time>2014-09-28T11:11:46Z</time>
      </trkpt>
      <trkpt lat="48.78755" lon="2.15818">
        <ele>161</ele>
        <time>2014-09-28T11:12:05Z</time>
      </trkpt>
      <trkpt lat="48.78758" lon="2.15824">
        <ele>160</ele>
        <time>2014-09-28T11:12:08Z</time>
      </trkpt>
      <trkpt lat="48.78764" lon="2.15829">
        <ele>151</ele>
        <time>2014-09-28T11:12:13Z</time>
      </trkpt>
      <trkpt lat="48.78766" lon="2.15837">
        <ele>149</ele>
        <time>2014-09-28T11:12:17Z</time>
      </trkpt>
      <trkpt lat="48.78768" lon="2.15854">
        <ele>150</ele>
        <time>2014-09-28T11:12:27Z</time>
      </trkpt>
      <trkpt lat="48.78765" lon="2.15869">
        <ele>152</ele>
        <time>2014-09-28T11:12:39Z</time>
      </trkpt>
      <trkpt lat="48.78768" lon="2.15877">
        <ele>152</ele>
        <time>2014-09-28T11:12:45Z</time>
      </trkpt>
      <trkpt lat="48.78773" lon="2.15883">
        <ele>158</ele>
        <time>2014-09-28T11:12:51Z</time>
      </trkpt>
      <trkpt lat="48.78774" lon="2.15901">
        <ele>166</ele>
        <time>2014-09-28T11:13:00Z</time>
      </trkpt>
      <trkpt lat="48.7878" lon="2.15918">
        <ele>161</ele>
        <time>2014-09-28T11:13:10Z</time>
      </trkpt>
      <trkpt lat="48.78779" lon="2.15928">
        <ele>159</ele>
        <time>2014-09-28T11:13:14Z</time>
      </trkpt>
      <trkpt lat="48.7878" lon="2.15937">
        <ele>157</ele>
        <time>2014-09-28T11:13:19Z</time>
      </trkpt>
      <trkpt lat="48.78786" lon="2.15962">
        <ele>156</ele>
        <time>2014-09-28T11:13:31Z</time>
      </trkpt>
      <trkpt lat="48.7879" lon="2.15978">
        <ele>160</ele>
        <time>2014-09-28T11:13:40Z</time>
      </trkpt>
      <trkpt lat="48.78788" lon="2.15995">
        <ele>161</ele>
        <time>2014-09-28T11:13:46Z</time>
      </trkpt>
      <trkpt lat="48.78797" lon="2.16007">
        <ele>157</ele>
        <time>2014-09-28T11:13:55Z</time>
      </trkpt>
      <trkpt lat="48.78805" lon="2.16017">
        <ele>153</ele>
        <time>2014-09-28T11:14:05Z</time>
      </trkpt>
      <trkpt lat="48.78806" lon="2.16026">
        <ele>157</ele>
        <time>2014-09-28T11:14:10Z</time>
      </trkpt>
      <trkpt lat="48.78809" lon="2.16034">
        <ele>160</ele>
        <time>2014-09-28T11:14:15Z</time>
      </trkpt>
      <trkpt lat="48.78814" lon="2.16041">
        <ele>159</ele>
        <time>2014-09-28T11:14:19Z</time>
      </trkpt>
      <trkpt lat="48.78816" lon="2.16056">
        <ele>161</ele>
        <time>2014-09-28T11:14:25Z</time>
      </trkpt>
      <trkpt lat="48.78815" lon="2.16064">
        <ele>160</ele>
        <time>2014-09-28T11:14:29Z</time>
      </trkpt>
      <trkpt lat="48.78813" lon="2.16087">
        <ele>165</ele>
        <time>2014-09-28T11:14:45Z</time>
      </trkpt>
      <trkpt lat="48.78814" lon="2.16096">
        <ele>165</ele>
        <time>2014-09-28T11:14:50Z</time>
      </trkpt>
      <trkpt lat="48.78812" lon="2.16125">
        <ele>159</ele>
        <time>2014-09-28T11:15:09Z</time>
      </trkpt>
      <trkpt lat="48.78815" lon="2.16133">
        <ele>159</ele>
        <time>2014-09-28T11:15:14Z</time>
      </trkpt>
      <trkpt lat="48.78823" lon="2.16146">
        <ele>158</ele>
        <time>2014-09-28T11:15:24Z</time>
      </trkpt>
      <trkpt lat="48.78843" lon="2.16164">
        <ele>158</ele>
        <time>2014-09-28T11:15:39Z</time>
      </trkpt>
      <trkpt lat="48.78856" lon="2.16164">
        <ele>162</ele>
        <time>2014-09-28T11:15:47Z</time>
      </trkpt>
      <trkpt lat="48.78889" lon="2.16161">
        <ele>155</ele>
        <time>2014-09-28T11:16:13Z</time>
      </trkpt>
      <trkpt lat="48.78898" lon="2.16169">
        <ele>142</ele>
        <time>2014-09-28T11:16:21Z</time>
      </trkpt>
      <trkpt lat="48.78902" lon="2.16165">
        <ele>144</ele>
        <time>2014-09-28T11:16:23Z</time>
      </trkpt>
      <trkpt lat="48.78909" lon="2.16162">
        <ele>146</ele>
        <time>2014-09-28T11:16:26Z</time>
      </trkpt>
      <trkpt lat="48.78948" lon="2.16137">
        <ele>139</ele>
        <time>2014-09-28T11:16:55Z</time>
      </trkpt>
      <trkpt lat="48.78954" lon="2.1614">
        <ele>143</ele>
        <time>2014-09-28T11:17:01Z</time>
      </trkpt>
      <trkpt lat="48.78963" lon="2.1616">
        <ele>134</ele>
        <time>2014-09-28T11:17:14Z</time>
      </trkpt>
      <trkpt lat="48.78964" lon="2.16169">
        <ele>132</ele>
        <time>2014-09-28T11:17:19Z</time>
      </trkpt>
      <trkpt lat="48.78957" lon="2.16181">
        <ele>134</ele>
        <time>2014-09-28T11:17:28Z</time>
      </trkpt>
      <trkpt lat="48.78956" lon="2.16188">
        <ele>131</ele>
        <time>2014-09-28T11:17:33Z</time>
      </trkpt>
      <trkpt lat="48.78953" lon="2.16195">
        <ele>125</ele>
        <time>2014-09-28T11:17:37Z</time>
      </trkpt>
      <trkpt lat="48.78944" lon="2.16226">
        <ele>125</ele>
        <time>2014-09-28T11:17:52Z</time>
      </trkpt>
      <trkpt lat="48.78943" lon="2.16234">
        <ele>131</ele>
        <time>2014-09-28T11:17:57Z</time>
      </trkpt>
      <trkpt lat="48.78942" lon="2.16242">
        <ele>138</ele>
        <time>2014-09-28T11:18:03Z</time>
      </trkpt>
      <trkpt lat="48.7894" lon="2.1625">
        <ele>143</ele>
        <time>2014-09-28T11:18:07Z</time>
      </trkpt>
      <trkpt lat="48.78938" lon="2.16257">
        <ele>146</ele>
        <time>2014-09-28T11:18:10Z</time>
      </trkpt>
      <trkpt lat="48.78934" lon="2.16275">
        <ele>149</ele>
        <time>2014-09-28T11:18:17Z</time>
      </trkpt>
      <trkpt lat="48.78934" lon="2.16283">
        <ele>147</ele>
        <time>2014-09-28T11:18:21Z</time>
      </trkpt>
      <trkpt lat="48.78934" lon="2.16313">
        <ele>152</ele>
        <time>2014-09-28T11:18:30Z</time>
      </trkpt>
      <trkpt lat="48.78938" lon="2.16321">
        <ele>153</ele>
        <time>2014-09-28T11:18:33Z</time>
      </trkpt>
      <trkpt lat="48.78946" lon="2.16337">
        <ele>153</ele>
        <time>2014-09-28T11:18:40Z</time>
      </trkpt>
      <trkpt lat="48.78974" lon="2.1638">
        <ele>136</ele>
        <time>2014-09-28T11:19:03Z</time>
      </trkpt>
      <trkpt lat="48.78979" lon="2.16384">
        <ele>136</ele>
        <time>2014-09-28T11:19:07Z</time>
      </trkpt>
      <trkpt lat="48.78982" lon="2.16393">
        <ele>135</ele>
        <time>2014-09-28T11:19:12Z</time>
      </trkpt>
      <trkpt lat="48.78995" lon="2.16399">
        <ele>138</ele>
        <time>2014-09-28T11:19:23Z</time>
      </trkpt>
      <trkpt lat="48.78999" lon="2.16406">
        <ele>139</ele>
        <time>2014-09-28T11:19:28Z</time>
      </trkpt>
      <trkpt lat="48.79022" lon="2.16414">
        <ele>143</ele>
        <time>2014-09-28T11:19:43Z</time>
      </trkpt>
      <trkpt lat="48.79018" lon="2.1642">
        <ele>144</ele>
        <time>2014-09-28T11:19:51Z</time>
      </trkpt>
      <trkpt lat="48.79014" lon="2.16431">
        <ele>146</ele>
        <time>2014-09-28T11:20:02Z</time>
      </trkpt>
      <trkpt lat="48.79011" lon="2.16437">
        <ele>149</ele>
        <time>2014-09-28T11:20:07Z</time>
      </trkpt>
      <trkpt lat="48.79009" lon="2.16445">
        <ele>152</ele>
        <time>2014-09-28T11:20:12Z</time>
      </trkpt>
      <trkpt lat="48.7901" lon="2.16454">
        <ele>152</ele>
        <time>2014-09-28T11:20:17Z</time>
      </trkpt>
      <trkpt lat="48.79014" lon="2.16471">
        <ele>152</ele>
        <time>2014-09-28T11:20:25Z</time>
      </trkpt>
      <trkpt lat="48.79017" lon="2.16479">
        <ele>156</ele>
        <time>2014-09-28T11:20:29Z</time>
      </trkpt>
      <trkpt lat="48.79022" lon="2.16483">
        <ele>162</ele>
        <time>2014-09-28T11:20:33Z</time>
      </trkpt>
      <trkpt lat="48.79022" lon="2.16492">
        <ele>161</ele>
        <time>2014-09-28T11:20:38Z</time>
      </trkpt>
      <trkpt lat="48.79017" lon="2.16498">
        <ele>165</ele>
        <time>2014-09-28T11:20:44Z</time>
      </trkpt>
      <trkpt lat="48.79013" lon="2.16514">
        <ele>165</ele>
        <time>2014-09-28T11:20:49Z</time>
      </trkpt>
      <trkpt lat="48.79013" lon="2.16522">
        <ele>169</ele>
        <time>2014-09-28T11:20:54Z</time>
      </trkpt>
      <trkpt lat="48.79017" lon="2.1654">
        <ele>166</ele>
        <time>2014-09-28T11:21:05Z</time>
      </trkpt>
      <trkpt lat="48.79015" lon="2.16549">
        <ele>167</ele>
        <time>2014-09-28T11:21:10Z</time>
      </trkpt>
      <trkpt lat="48.79015" lon="2.16557">
        <ele>165</ele>
        <time>2014-09-28T11:21:15Z</time>
      </trkpt>
      <trkpt lat="48.79015" lon="2.16566">
        <ele>169</ele>
        <time>2014-09-28T11:21:20Z</time>
      </trkpt>
      <trkpt lat="48.79016" lon="2.16576">
        <ele>172</ele>
        <time>2014-09-28T11:21:24Z</time>
      </trkpt>
      <trkpt lat="48.79011" lon="2.16583">
        <ele>172</ele>
        <time>2014-09-28T11:21:29Z</time>
      </trkpt>
      <trkpt lat="48.7901" lon="2.16592">
        <ele>167</ele>
        <time>2014-09-28T11:21:33Z</time>
      </trkpt>
      <trkpt lat="48.79009" lon="2.16608">
        <ele>167</ele>
        <time>2014-09-28T11:21:43Z</time>
      </trkpt>
      <trkpt lat="48.79006" lon="2.16618">
        <ele>169</ele>
        <time>2014-09-28T11:21:51Z</time>
      </trkpt>
      <trkpt lat="48.79003" lon="2.16635">
        <ele>171</ele>
        <time>2014-09-28T11:21:58Z</time>
      </trkpt>
      <trkpt lat="48.79003" lon="2.16667">
        <ele>168</ele>
        <time>2014-09-28T11:22:07Z</time>
      </trkpt>
      <trkpt lat="48.79012" lon="2.16671">
        <ele>173</ele>
        <time>2014-09-28T11:22:14Z</time>
      </trkpt>
      <trkpt lat="48.79018" lon="2.16668">
        <ele>172</ele>
        <time>2014-09-28T11:22:19Z</time>
      </trkpt>
      <trkpt lat="48.79034" lon="2.16678">
        <ele>172</ele>
        <time>2014-09-28T11:22:28Z</time>
      </trkpt>
      <trkpt lat="48.79053" lon="2.16667">
        <ele>171</ele>
        <time>2014-09-28T11:22:41Z</time>
      </trkpt>
      <trkpt lat="48.79092" lon="2.1669">
        <ele>169</ele>
        <time>2014-09-28T11:23:08Z</time>
      </trkpt>
      <trkpt lat="48.79094" lon="2.16699">
        <ele>170</ele>
        <time>2014-09-28T11:23:14Z</time>
      </trkpt>
      <trkpt lat="48.79087" lon="2.16747">
        <ele>170</ele>
        <time>2014-09-28T11:23:47Z</time>
      </trkpt>
      <trkpt lat="48.7909" lon="2.16783">
        <ele>169</ele>
        <time>2014-09-28T11:24:02Z</time>
      </trkpt>
      <trkpt lat="48.79091" lon="2.16792">
        <ele>176</ele>
        <time>2014-09-28T11:24:07Z</time>
      </trkpt>
      <trkpt lat="48.79094" lon="2.168">
        <ele>181</ele>
        <time>2014-09-28T11:24:13Z</time>
      </trkpt>
      <trkpt lat="48.79102" lon="2.16872">
        <ele>176</ele>
        <time>2014-09-28T11:24:47Z</time>
      </trkpt>
      <trkpt lat="48.79107" lon="2.16887">
        <ele>178</ele>
        <time>2014-09-28T11:24:55Z</time>
      </trkpt>
      <trkpt lat="48.79116" lon="2.1695">
        <ele>174</ele>
        <time>2014-09-28T11:25:24Z</time>
      </trkpt>
      <trkpt lat="48.79122" lon="2.16962">
        <ele>186</ele>
        <time>2014-09-28T11:25:35Z</time>
      </trkpt>
      <trkpt lat="48.79121" lon="2.1697">
        <ele>185</ele>
        <time>2014-09-28T11:25:39Z</time>
      </trkpt>
      <trkpt lat="48.79124" lon="2.16978">
        <ele>187</ele>
        <time>2014-09-28T11:25:43Z</time>
      </trkpt>
      <trkpt lat="48.79134" lon="2.17001">
        <ele>186</ele>
        <time>2014-09-28T11:25:54Z</time>
      </trkpt>
      <trkpt lat="48.79139" lon="2.17045">
        <ele>177</ele>
        <time>2014-09-28T11:26:13Z</time>
      </trkpt>
      <trkpt lat="48.79143" lon="2.17051">
        <ele>178</ele>
        <time>2014-09-28T11:26:17Z</time>
      </trkpt>
      <trkpt lat="48.79152" lon="2.17075">
        <ele>178</ele>
        <time>2014-09-28T11:26:28Z</time>
      </trkpt>
      <trkpt lat="48.79153" lon="2.17086">
        <ele>182</ele>
        <time>2014-09-28T11:26:31Z</time>
      </trkpt>
      <trkpt lat="48.79156" lon="2.17094">
        <ele>185</ele>
        <time>2014-09-28T11:26:36Z</time>
      </trkpt>
      <trkpt lat="48.79156" lon="2.17105">
        <ele>187</ele>
        <time>2014-09-28T11:26:40Z</time>
      </trkpt>
      <trkpt lat="48.79165" lon="2.17128">
        <ele>187</ele>
        <time>2014-09-28T11:26:51Z</time>
      </trkpt>
      <trkpt lat="48.79164" lon="2.17138">
        <ele>187</ele>
        <time>2014-09-28T11:26:54Z</time>
      </trkpt>
      <trkpt lat="48.79173" lon="2.17161">
        <ele>188</ele>
        <time>2014-09-28T11:27:06Z</time>
      </trkpt>
      <trkpt lat="48.79177" lon="2.17176">
        <ele>188</ele>
        <time>2014-09-28T11:27:14Z</time>
      </trkpt>
      <trkpt lat="48.79182" lon="2.17176">
        <ele>186</ele>
        <time>2014-09-28T11:27:19Z</time>
      </trkpt>
      <trkpt lat="48.79188" lon="2.17176">
        <ele>192</ele>
        <time>2014-09-28T11:27:41Z</time>
      </trkpt>
      <trkpt lat="48.79192" lon="2.17181">
        <ele>197</ele>
        <time>2014-09-28T11:27:53Z</time>
      </trkpt>
      <trkpt lat="48.79202" lon="2.17209">
        <ele>190</ele>
        <time>2014-09-28T11:28:12Z</time>
      </trkpt>
      <trkpt lat="48.79201" lon="2.17217">
        <ele>186</ele>
        <time>2014-09-28T11:28:16Z</time>
      </trkpt>
      <trkpt lat="48.79206" lon="2.17231">
        <ele>187</ele>
        <time>2014-09-28T11:28:25Z</time>
      </trkpt>
      <trkpt lat="48.7922" lon="2.17282">
        <ele>173</ele>
        <time>2014-09-28T11:28:51Z</time>
      </trkpt>
      <trkpt lat="48.79217" lon="2.17289">
        <ele>172</ele>
        <time>2014-09-28T11:28:57Z</time>
      </trkpt>
      <trkpt lat="48.79196" lon="2.17296">
        <ele>170</ele>
        <time>2014-09-28T11:29:14Z</time>
      </trkpt>
      <trkpt lat="48.79184" lon="2.17305">
        <ele>175</ele>
        <time>2014-09-28T11:29:22Z</time>
      </trkpt>
      <trkpt lat="48.79177" lon="2.17301">
        <ele>176</ele>
        <time>2014-09-28T11:29:25Z</time>
      </trkpt>
      <trkpt lat="48.79166" lon="2.17303">
        <ele>178</ele>
        <time>2014-09-28T11:29:32Z</time>
      </trkpt>
      <trkpt lat="48.79146" lon="2.1733">
        <ele>180</ele>
        <time>2014-09-28T11:29:49Z</time>
      </trkpt>
      <trkpt lat="48.79142" lon="2.17334">
        <ele>185</ele>
        <time>2014-09-28T11:29:54Z</time>
      </trkpt>
      <trkpt lat="48.7913" lon="2.17346">
        <ele>191</ele>
        <time>2014-09-28T11:30:03Z</time>
      </trkpt>
      <trkpt lat="48.79088" lon="2.17401">
        <ele>189</ele>
        <time>2014-09-28T11:30:36Z</time>
      </trkpt>
      <trkpt lat="48.79051" lon="2.17426">
        <ele>176</ele>
        <time>2014-09-28T11:31:02Z</time>
      </trkpt>
      <trkpt lat="48.7905" lon="2.17434">
        <ele>178</ele>
        <time>2014-09-28T11:31:06Z</time>
      </trkpt>
      <trkpt lat="48.79045" lon="2.1744">
        <ele>179</ele>
        <time>2014-09-28T11:31:10Z</time>
      </trkpt>
      <trkpt lat="48.7904" lon="2.17443">
        <ele>182</ele>
        <time>2014-09-28T11:31:12Z</time>
      </trkpt>
      <trkpt lat="48.79034" lon="2.17445">
        <ele>186</ele>
        <time>2014-09-28T11:31:16Z</time>
      </trkpt>
      <trkpt lat="48.79029" lon="2.17446">
        <ele>189</ele>
        <time>2014-09-28T11:31:21Z</time>
      </trkpt>
      <trkpt lat="48.79016" lon="2.17466">
        <ele>188</ele>
        <time>2014-09-28T11:31:33Z</time>
      </trkpt>
      <trkpt lat="48.79006" lon="2.17474">
        <ele>188</ele>
        <time>2014-09-28T11:31:39Z</time>
      </trkpt>
      <trkpt lat="48.79001" lon="2.17476">
        <ele>190</ele>
        <time>2014-09-28T11:31:42Z</time>
      </trkpt>
      <trkpt lat="48.78996" lon="2.1748">
        <ele>192</ele>
        <time>2014-09-28T11:31:48Z</time>
      </trkpt>
      <trkpt lat="48.78993" lon="2.1749">
        <ele>192</ele>
        <time>2014-09-28T11:31:52Z</time>
      </trkpt>
      <trkpt lat="48.78988" lon="2.17495">
        <ele>192</ele>
        <time>2014-09-28T11:31:55Z</time>
      </trkpt>
      <trkpt lat="48.7897" lon="2.175">
        <ele>191</ele>
        <time>2014-09-28T11:32:04Z</time>
      </trkpt>
      <trkpt lat="48.78968" lon="2.17518">
        <ele>192</ele>
        <time>2014-09-28T11:32:10Z</time>
      </trkpt>
      <trkpt lat="48.78934" lon="2.17593">
        <ele>182</ele>
        <time>2014-09-28T11:32:40Z</time>
      </trkpt>
      <trkpt lat="48.78914" lon="2.1766">
        <ele>169</ele>
        <time>2014-09-28T11:33:11Z</time>
      </trkpt>
      <trkpt lat="48.7891" lon="2.17667">
        <ele>173</ele>
        <time>2014-09-28T11:33:14Z</time>
      </trkpt>
      <trkpt lat="48.78906" lon="2.17675">
        <ele>177</ele>
        <time>2014-09-28T11:33:18Z</time>
      </trkpt>
      <trkpt lat="48.78903" lon="2.17688">
        <ele>175</ele>
        <time>2014-09-28T11:33:28Z</time>
      </trkpt>
      <trkpt lat="48.78901" lon="2.17695">
        <ele>180</ele>
        <time>2014-09-28T11:33:31Z</time>
      </trkpt>
      <trkpt lat="48.7889" lon="2.17725">
        <ele>175</ele>
        <time>2014-09-28T11:33:43Z</time>
      </trkpt>
      <trkpt lat="48.78869" lon="2.17794">
        <ele>161</ele>
        <time>2014-09-28T11:34:14Z</time>
      </trkpt>
      <trkpt lat="48.78862" lon="2.17803">
        <ele>162</ele>
        <time>2014-09-28T11:34:19Z</time>
      </trkpt>
      <trkpt lat="48.78857" lon="2.1782">
        <ele>162</ele>
        <time>2014-09-28T11:34:26Z</time>
      </trkpt>
      <trkpt lat="48.7884" lon="2.17879">
        <ele>163</ele>
        <time>2014-09-28T11:34:57Z</time>
      </trkpt>
      <trkpt lat="48.78839" lon="2.17894">
        <ele>166</ele>
        <time>2014-09-28T11:35:04Z</time>
      </trkpt>
      <trkpt lat="48.78839" lon="2.179">
        <ele>168</ele>
        <time>2014-09-28T11:35:07Z</time>
      </trkpt>
      <trkpt lat="48.78838" lon="2.17908">
        <ele>170</ele>
        <time>2014-09-28T11:35:10Z</time>
      </trkpt>
      <trkpt lat="48.78838" lon="2.17913">
        <ele>172</ele>
        <time>2014-09-28T11:35:12Z</time>
      </trkpt>
      <trkpt lat="48.78829" lon="2.17971">
        <ele>171</ele>
        <time>2014-09-28T11:35:42Z</time>
      </trkpt>
      <trkpt lat="48.78821" lon="2.17988">
        <ele>171</ele>
        <time>2014-09-28T11:35:52Z</time>
      </trkpt>
      <trkpt lat="48.78822" lon="2.17992">
        <ele>170</ele>
        <time>2014-09-28T11:35:54Z</time>
      </trkpt>
      <trkpt lat="48.7884" lon="2.18029">
        <ele>171</ele>
        <time>2014-09-28T11:36:14Z</time>
      </trkpt>
      <trkpt lat="48.7888" lon="2.18048">
        <ele>172</ele>
        <time>2014-09-28T11:36:42Z</time>
      </trkpt>
      <trkpt lat="48.78894" lon="2.18058">
        <ele>175</ele>
        <time>2014-09-28T11:36:54Z</time>
      </trkpt>
      <trkpt lat="48.78897" lon="2.1806">
        <ele>177</ele>
        <time>2014-09-28T11:36:56Z</time>
      </trkpt>
      <trkpt lat="48.78911" lon="2.18071">
        <ele>178</ele>
        <time>2014-09-28T11:37:05Z</time>
      </trkpt>
      <trkpt lat="48.78921" lon="2.18074">
        <ele>178</ele>
        <time>2014-09-28T11:37:12Z</time>
      </trkpt>
      <trkpt lat="48.78959" lon="2.18112">
        <ele>170</ele>
        <time>2014-09-28T11:37:42Z</time>
      </trkpt>
      <trkpt lat="48.78989" lon="2.18126">
        <ele>166</ele>
        <time>2014-09-28T11:38:00Z</time>
      </trkpt>
      <trkpt lat="48.78994" lon="2.18143">
        <ele>167</ele>
        <time>2014-09-28T11:38:07Z</time>
      </trkpt>
      <trkpt lat="48.78997" lon="2.18149">
        <ele>170</ele>
        <time>2014-09-28T11:38:11Z</time>
      </trkpt>
      <trkpt lat="48.79008" lon="2.18155">
        <ele>168</ele>
        <time>2014-09-28T11:38:21Z</time>
      </trkpt>
      <trkpt lat="48.79011" lon="2.18163">
        <ele>168</ele>
        <time>2014-09-28T11:38:25Z</time>
      </trkpt>
      <trkpt lat="48.7903" lon="2.18208">
        <ele>163</ele>
        <time>2014-09-28T11:38:49Z</time>
      </trkpt>
      <trkpt lat="48.79042" lon="2.18217">
        <ele>166</ele>
        <time>2014-09-28T11:38:57Z</time>
      </trkpt>
      <trkpt lat="48.79046" lon="2.18233">
        <ele>162</ele>
        <time>2014-09-28T11:39:05Z</time>
      </trkpt>
      <trkpt lat="48.79062" lon="2.18248">
        <ele>164</ele>
        <time>2014-09-28T11:39:19Z</time>
      </trkpt>
      <trkpt lat="48.79069" lon="2.18276">
        <ele>164</ele>
        <time>2014-09-28T11:39:28Z</time>
      </trkpt>
      <trkpt lat="48.79075" lon="2.18279">
        <ele>169</ele>
        <time>2014-09-28T11:39:32Z</time>
      </trkpt>
      <trkpt lat="48.79085" lon="2.1828">
        <ele>163</ele>
        <time>2014-09-28T11:39:38Z</time>
      </trkpt>
      <trkpt lat="48.7909" lon="2.18285">
        <ele>164</ele>
        <time>2014-09-28T11:39:42Z</time>
      </trkpt>
      <trkpt lat="48.79093" lon="2.18305">
        <ele>165</ele>
        <time>2014-09-28T11:39:51Z</time>
      </trkpt>
      <trkpt lat="48.79099" lon="2.18307">
        <ele>163</ele>
        <time>2014-09-28T11:39:55Z</time>
      </trkpt>
      <trkpt lat="48.79135" lon="2.18339">
        <ele>154</ele>
        <time>2014-09-28T11:40:21Z</time>
      </trkpt>
      <trkpt lat="48.79175" lon="2.18383">
        <ele>147</ele>
        <time>2014-09-28T11:40:54Z</time>
      </trkpt>
      <trkpt lat="48.79186" lon="2.18394">
        <ele>146</ele>
        <time>2014-09-28T11:41:04Z</time>
      </trkpt>
      <trkpt lat="48.79194" lon="2.18409">
        <ele>148</ele>
        <time>2014-09-28T11:41:13Z</time>
      </trkpt>
      <trkpt lat="48.79223" lon="2.18441">
        <ele>148</ele>
        <time>2014-09-28T11:41:44Z</time>
      </trkpt>
      <trkpt lat="48.79235" lon="2.18452">
        <ele>151</ele>
        <time>2014-09-28T11:41:52Z</time>
      </trkpt>
      <trkpt lat="48.7925" lon="2.18455">
        <ele>144</ele>
        <time>2014-09-28T11:42:01Z</time>
      </trkpt>
      <trkpt lat="48.79256" lon="2.18462">
        <ele>142</ele>
        <time>2014-09-28T11:42:06Z</time>
      </trkpt>
      <trkpt lat="48.79256" lon="2.18474">
        <ele>137</ele>
        <time>2014-09-28T11:42:10Z</time>
      </trkpt>
      <trkpt lat="48.7926" lon="2.18485">
        <ele>137</ele>
        <time>2014-09-28T11:42:15Z</time>
      </trkpt>
      <trkpt lat="48.79275" lon="2.18494">
        <ele>135</ele>
        <time>2014-09-28T11:42:23Z</time>
      </trkpt>
      <trkpt lat="48.79311" lon="2.1853">
        <ele>130</ele>
        <time>2014-09-28T11:42:48Z</time>
      </trkpt>
      <trkpt lat="48.79316" lon="2.18551">
        <ele>125</ele>
        <time>2014-09-28T11:42:57Z</time>
      </trkpt>
      <trkpt lat="48.79311" lon="2.1857">
        <ele>121</ele>
        <time>2014-09-28T11:43:05Z</time>
      </trkpt>
      <trkpt lat="48.79317" lon="2.1857">
        <ele>115</ele>
        <time>2014-09-28T11:43:21Z</time>
      </trkpt>
    </trkseg>
  </trk>
</gpx>